<?xml version="1.0" encoding="UTF-8" standalone="no" ?>
<gpx xmlns="http://www.topografix.com/GPX/1/1" xmlns:xsi="http://www.w3.org/2001/XMLSchema-instance" xsi:schemaLocation="http://www.topografix.com/GPX/1/1 http://www.topografix.com/GPX/1/1/gpx.xsd" version="1.1" creator="VisuGPX - https://www.visugpx.com">
  <metadata>
    <name>Circuit_St_Sébastien de Morsent-de nuit_20111123</name>
    <desc><![CDATA[Circuit footing de nuit, 60% route, 40% chemin de terre]]></desc>
  </metadata>
  <trk>
    <name><![CDATA[ACTIVE LOG: 23 NOV 2011 18:54]]></name>
    <trkseg>
      <trkpt lat="49.00239" lon="1.08943">
        <ele>113.57</ele>
        <time>2011-11-23T17:54:42Z</time>
      </trkpt>
      <trkpt lat="49.00239" lon="1.08943">
        <ele>116.46</ele>
        <time>2011-11-23T17:54:48Z</time>
      </trkpt>
      <trkpt lat="49.00239" lon="1.08943">
        <ele>111.65</ele>
        <time>2011-11-23T17:54:49Z</time>
      </trkpt>
      <trkpt lat="49.00239" lon="1.08943">
        <ele>115.98</ele>
        <time>2011-11-23T17:54:51Z</time>
      </trkpt>
      <trkpt lat="49.00238" lon="1.08944">
        <ele>114.05</ele>
        <time>2011-11-23T17:54:54Z</time>
      </trkpt>
      <trkpt lat="49.00236" lon="1.08944">
        <ele>115.5</ele>
        <time>2011-11-23T17:54:56Z</time>
      </trkpt>
      <trkpt lat="49.00218" lon="1.08951">
        <ele>116.46</ele>
        <time>2011-11-23T17:55:09Z</time>
      </trkpt>
      <trkpt lat="49.00215" lon="1.08951">
        <ele>112.13</ele>
        <time>2011-11-23T17:55:10Z</time>
      </trkpt>
      <trkpt lat="49.00213" lon="1.08952">
        <ele>115.5</ele>
        <time>2011-11-23T17:55:11Z</time>
      </trkpt>
      <trkpt lat="49.00212" lon="1.08993">
        <ele>111.65</ele>
        <time>2011-11-23T17:55:23Z</time>
      </trkpt>
      <trkpt lat="49.00215" lon="1.09003">
        <ele>115.5</ele>
        <time>2011-11-23T17:55:26Z</time>
      </trkpt>
      <trkpt lat="49.00217" lon="1.0901">
        <ele>110.69</ele>
        <time>2011-11-23T17:55:28Z</time>
      </trkpt>
      <trkpt lat="49.00218" lon="1.09013">
        <ele>113.57</ele>
        <time>2011-11-23T17:55:29Z</time>
      </trkpt>
      <trkpt lat="49.00237" lon="1.09052">
        <ele>114.53</ele>
        <time>2011-11-23T17:55:43Z</time>
      </trkpt>
      <trkpt lat="49.00238" lon="1.09054">
        <ele>112.13</ele>
        <time>2011-11-23T17:55:44Z</time>
      </trkpt>
      <trkpt lat="49.0024" lon="1.09058">
        <ele>115.01</ele>
        <time>2011-11-23T17:55:46Z</time>
      </trkpt>
      <trkpt lat="49.00244" lon="1.09064">
        <ele>114.53</ele>
        <time>2011-11-23T17:55:54Z</time>
      </trkpt>
      <trkpt lat="49.00243" lon="1.09063">
        <ele>110.21</ele>
        <time>2011-11-23T17:55:58Z</time>
      </trkpt>
      <trkpt lat="49.00243" lon="1.09063">
        <ele>113.57</ele>
        <time>2011-11-23T17:55:59Z</time>
      </trkpt>
      <trkpt lat="49.00243" lon="1.09064">
        <ele>114.05</ele>
        <time>2011-11-23T17:56:01Z</time>
      </trkpt>
      <trkpt lat="49.00252" lon="1.09074">
        <ele>114.53</ele>
        <time>2011-11-23T17:56:08Z</time>
      </trkpt>
      <trkpt lat="49.00256" lon="1.0908">
        <ele>113.09</ele>
        <time>2011-11-23T17:56:10Z</time>
      </trkpt>
      <trkpt lat="49.00252" lon="1.0911">
        <ele>115.5</ele>
        <time>2011-11-23T17:56:17Z</time>
      </trkpt>
      <trkpt lat="49.00243" lon="1.09125">
        <ele>113.09</ele>
        <time>2011-11-23T17:56:22Z</time>
      </trkpt>
      <trkpt lat="49.00224" lon="1.09133">
        <ele>112.61</ele>
        <time>2011-11-23T17:56:30Z</time>
      </trkpt>
      <trkpt lat="49.00193" lon="1.09146">
        <ele>114.05</ele>
        <time>2011-11-23T17:56:43Z</time>
      </trkpt>
      <trkpt lat="49.00188" lon="1.09148">
        <ele>115.01</ele>
        <time>2011-11-23T17:56:45Z</time>
      </trkpt>
      <trkpt lat="49.00159" lon="1.0917">
        <ele>116.94</ele>
        <time>2011-11-23T17:56:58Z</time>
      </trkpt>
      <trkpt lat="49.00149" lon="1.09186">
        <ele>115.98</ele>
        <time>2011-11-23T17:57:04Z</time>
      </trkpt>
      <trkpt lat="49.00145" lon="1.09191">
        <ele>115.5</ele>
        <time>2011-11-23T17:57:06Z</time>
      </trkpt>
      <trkpt lat="49.00135" lon="1.09232">
        <ele>115.01</ele>
        <time>2011-11-23T17:57:17Z</time>
      </trkpt>
      <trkpt lat="49.00136" lon="1.09241">
        <ele>114.05</ele>
        <time>2011-11-23T17:57:19Z</time>
      </trkpt>
      <trkpt lat="49.0015" lon="1.09286">
        <ele>114.53</ele>
        <time>2011-11-23T17:57:32Z</time>
      </trkpt>
      <trkpt lat="49.00161" lon="1.0933">
        <ele>111.65</ele>
        <time>2011-11-23T17:57:45Z</time>
      </trkpt>
      <trkpt lat="49.00161" lon="1.09334">
        <ele>116.46</ele>
        <time>2011-11-23T17:57:46Z</time>
      </trkpt>
      <trkpt lat="49.0016" lon="1.09346">
        <ele>112.13</ele>
        <time>2011-11-23T17:57:50Z</time>
      </trkpt>
      <trkpt lat="49.0016" lon="1.09349">
        <ele>111.65</ele>
        <time>2011-11-23T17:57:51Z</time>
      </trkpt>
      <trkpt lat="49.00162" lon="1.0938">
        <ele>107.81</ele>
        <time>2011-11-23T17:58:00Z</time>
      </trkpt>
      <trkpt lat="49.00162" lon="1.09387">
        <ele>107.81</ele>
        <time>2011-11-23T17:58:02Z</time>
      </trkpt>
      <trkpt lat="49.00162" lon="1.09399">
        <ele>107.81</ele>
        <time>2011-11-23T17:58:06Z</time>
      </trkpt>
      <trkpt lat="49.00163" lon="1.09406">
        <ele>105.88</ele>
        <time>2011-11-23T17:58:08Z</time>
      </trkpt>
      <trkpt lat="49.00163" lon="1.09413">
        <ele>103</ele>
        <time>2011-11-23T17:58:11Z</time>
      </trkpt>
      <trkpt lat="49.00163" lon="1.09415">
        <ele>103</ele>
        <time>2011-11-23T17:58:12Z</time>
      </trkpt>
      <trkpt lat="49.00164" lon="1.09417">
        <ele>104.44</ele>
        <time>2011-11-23T17:58:13Z</time>
      </trkpt>
      <trkpt lat="49.00164" lon="1.09438">
        <ele>97.23</ele>
        <time>2011-11-23T17:58:21Z</time>
      </trkpt>
      <trkpt lat="49.00165" lon="1.09441">
        <ele>100.6</ele>
        <time>2011-11-23T17:58:22Z</time>
      </trkpt>
      <trkpt lat="49.00165" lon="1.09445">
        <ele>98.67</ele>
        <time>2011-11-23T17:58:23Z</time>
      </trkpt>
      <trkpt lat="49.00165" lon="1.09456">
        <ele>98.19</ele>
        <time>2011-11-23T17:58:27Z</time>
      </trkpt>
      <trkpt lat="49.00165" lon="1.09462">
        <ele>96.75</ele>
        <time>2011-11-23T17:58:29Z</time>
      </trkpt>
      <trkpt lat="49.00165" lon="1.09466">
        <ele>96.75</ele>
        <time>2011-11-23T17:58:31Z</time>
      </trkpt>
      <trkpt lat="49.00164" lon="1.09474">
        <ele>94.35</ele>
        <time>2011-11-23T17:58:34Z</time>
      </trkpt>
      <trkpt lat="49.00165" lon="1.09491">
        <ele>94.35</ele>
        <time>2011-11-23T17:58:39Z</time>
      </trkpt>
      <trkpt lat="49.00168" lon="1.09501">
        <ele>92.9</ele>
        <time>2011-11-23T17:58:42Z</time>
      </trkpt>
      <trkpt lat="49.00171" lon="1.09527">
        <ele>89.54</ele>
        <time>2011-11-23T17:58:51Z</time>
      </trkpt>
      <trkpt lat="49.00169" lon="1.09545">
        <ele>84.73</ele>
        <time>2011-11-23T17:58:58Z</time>
      </trkpt>
      <trkpt lat="49.00168" lon="1.09553">
        <ele>88.1</ele>
        <time>2011-11-23T17:59:01Z</time>
      </trkpt>
      <trkpt lat="49.00168" lon="1.09558">
        <ele>85.69</ele>
        <time>2011-11-23T17:59:03Z</time>
      </trkpt>
      <trkpt lat="49.00166" lon="1.09575">
        <ele>82.81</ele>
        <time>2011-11-23T17:59:08Z</time>
      </trkpt>
      <trkpt lat="49.00163" lon="1.09593">
        <ele>81.37</ele>
        <time>2011-11-23T17:59:13Z</time>
      </trkpt>
      <trkpt lat="49.00162" lon="1.09605">
        <ele>80.41</ele>
        <time>2011-11-23T17:59:17Z</time>
      </trkpt>
      <trkpt lat="49.00161" lon="1.09614">
        <ele>77.52</ele>
        <time>2011-11-23T17:59:20Z</time>
      </trkpt>
      <trkpt lat="49.00161" lon="1.09617">
        <ele>78.48</ele>
        <time>2011-11-23T17:59:21Z</time>
      </trkpt>
      <trkpt lat="49.00162" lon="1.09628">
        <ele>75.12</ele>
        <time>2011-11-23T17:59:25Z</time>
      </trkpt>
      <trkpt lat="49.00166" lon="1.09645">
        <ele>74.64</ele>
        <time>2011-11-23T17:59:32Z</time>
      </trkpt>
      <trkpt lat="49.00168" lon="1.09657">
        <ele>72.24</ele>
        <time>2011-11-23T17:59:36Z</time>
      </trkpt>
      <trkpt lat="49.00169" lon="1.09666">
        <ele>71.76</ele>
        <time>2011-11-23T17:59:39Z</time>
      </trkpt>
      <trkpt lat="49.00175" lon="1.09709">
        <ele>66.47</ele>
        <time>2011-11-23T17:59:51Z</time>
      </trkpt>
      <trkpt lat="49.00176" lon="1.09712">
        <ele>66.95</ele>
        <time>2011-11-23T17:59:52Z</time>
      </trkpt>
      <trkpt lat="49.00177" lon="1.09719">
        <ele>64.55</ele>
        <time>2011-11-23T17:59:55Z</time>
      </trkpt>
      <trkpt lat="49.00176" lon="1.09718">
        <ele>66.95</ele>
        <time>2011-11-23T17:59:57Z</time>
      </trkpt>
      <trkpt lat="49.00176" lon="1.09712">
        <ele>66.47</ele>
        <time>2011-11-23T18:00:00Z</time>
      </trkpt>
      <trkpt lat="49.00171" lon="1.09701">
        <ele>68.39</ele>
        <time>2011-11-23T18:00:06Z</time>
      </trkpt>
      <trkpt lat="49.00168" lon="1.09696">
        <ele>69.83</ele>
        <time>2011-11-23T18:00:10Z</time>
      </trkpt>
      <trkpt lat="49.00169" lon="1.09699">
        <ele>66.47</ele>
        <time>2011-11-23T18:00:18Z</time>
      </trkpt>
      <trkpt lat="49.0017" lon="1.09702">
        <ele>68.39</ele>
        <time>2011-11-23T18:00:24Z</time>
      </trkpt>
      <trkpt lat="49.00177" lon="1.0972">
        <ele>65.03</ele>
        <time>2011-11-23T18:00:33Z</time>
      </trkpt>
      <trkpt lat="49.00194" lon="1.0976">
        <ele>65.99</ele>
        <time>2011-11-23T18:00:47Z</time>
      </trkpt>
      <trkpt lat="49.00218" lon="1.09797">
        <ele>64.55</ele>
        <time>2011-11-23T18:01:00Z</time>
      </trkpt>
      <trkpt lat="49.00222" lon="1.09803">
        <ele>67.43</ele>
        <time>2011-11-23T18:01:02Z</time>
      </trkpt>
      <trkpt lat="49.00223" lon="1.09805">
        <ele>66.47</ele>
        <time>2011-11-23T18:01:03Z</time>
      </trkpt>
      <trkpt lat="49.00243" lon="1.09837">
        <ele>64.55</ele>
        <time>2011-11-23T18:01:15Z</time>
      </trkpt>
      <trkpt lat="49.00247" lon="1.09881">
        <ele>65.03</ele>
        <time>2011-11-23T18:01:27Z</time>
      </trkpt>
      <trkpt lat="49.00244" lon="1.09888">
        <ele>66.95</ele>
        <time>2011-11-23T18:01:29Z</time>
      </trkpt>
      <trkpt lat="49.0024" lon="1.09894">
        <ele>65.99</ele>
        <time>2011-11-23T18:01:31Z</time>
      </trkpt>
      <trkpt lat="49.00214" lon="1.09923">
        <ele>65.51</ele>
        <time>2011-11-23T18:01:42Z</time>
      </trkpt>
      <trkpt lat="49.00177" lon="1.09962">
        <ele>64.07</ele>
        <time>2011-11-23T18:01:59Z</time>
      </trkpt>
      <trkpt lat="49.00146" lon="1.09992">
        <ele>65.03</ele>
        <time>2011-11-23T18:02:13Z</time>
      </trkpt>
      <trkpt lat="49.00117" lon="1.10019">
        <ele>62.14</ele>
        <time>2011-11-23T18:02:26Z</time>
      </trkpt>
      <trkpt lat="49.00114" lon="1.10021">
        <ele>65.51</ele>
        <time>2011-11-23T18:02:27Z</time>
      </trkpt>
      <trkpt lat="49.00108" lon="1.10026">
        <ele>62.14</ele>
        <time>2011-11-23T18:02:30Z</time>
      </trkpt>
      <trkpt lat="49.00101" lon="1.10034">
        <ele>65.51</ele>
        <time>2011-11-23T18:02:34Z</time>
      </trkpt>
      <trkpt lat="49.00077" lon="1.10053">
        <ele>64.07</ele>
        <time>2011-11-23T18:02:44Z</time>
      </trkpt>
      <trkpt lat="49.00049" lon="1.10064">
        <ele>63.1</ele>
        <time>2011-11-23T18:02:55Z</time>
      </trkpt>
      <trkpt lat="49.00014" lon="1.10075">
        <ele>65.03</ele>
        <time>2011-11-23T18:03:09Z</time>
      </trkpt>
      <trkpt lat="49.00002" lon="1.10081">
        <ele>68.87</ele>
        <time>2011-11-23T18:03:14Z</time>
      </trkpt>
      <trkpt lat="49" lon="1.10082">
        <ele>65.99</ele>
        <time>2011-11-23T18:03:15Z</time>
      </trkpt>
      <trkpt lat="48.99979" lon="1.10097">
        <ele>65.03</ele>
        <time>2011-11-23T18:03:24Z</time>
      </trkpt>
      <trkpt lat="48.99958" lon="1.10113">
        <ele>64.55</ele>
        <time>2011-11-23T18:03:32Z</time>
      </trkpt>
      <trkpt lat="48.99943" lon="1.10104">
        <ele>64.55</ele>
        <time>2011-11-23T18:03:38Z</time>
      </trkpt>
      <trkpt lat="48.99927" lon="1.10044">
        <ele>62.62</ele>
        <time>2011-11-23T18:03:52Z</time>
      </trkpt>
      <trkpt lat="48.99908" lon="1.09993">
        <ele>62.14</ele>
        <time>2011-11-23T18:04:06Z</time>
      </trkpt>
      <trkpt lat="48.99905" lon="1.09985">
        <ele>63.58</ele>
        <time>2011-11-23T18:04:08Z</time>
      </trkpt>
      <trkpt lat="48.99902" lon="1.09979">
        <ele>63.1</ele>
        <time>2011-11-23T18:04:10Z</time>
      </trkpt>
      <trkpt lat="48.99884" lon="1.09923">
        <ele>62.62</ele>
        <time>2011-11-23T18:04:26Z</time>
      </trkpt>
      <trkpt lat="48.99875" lon="1.09898">
        <ele>62.62</ele>
        <time>2011-11-23T18:04:33Z</time>
      </trkpt>
      <trkpt lat="48.99855" lon="1.0984">
        <ele>61.66</ele>
        <time>2011-11-23T18:04:50Z</time>
      </trkpt>
      <trkpt lat="48.99848" lon="1.09823">
        <ele>65.03</ele>
        <time>2011-11-23T18:04:55Z</time>
      </trkpt>
      <trkpt lat="48.99844" lon="1.0981">
        <ele>62.62</ele>
        <time>2011-11-23T18:04:59Z</time>
      </trkpt>
      <trkpt lat="48.9983" lon="1.0977">
        <ele>62.62</ele>
        <time>2011-11-23T18:05:11Z</time>
      </trkpt>
      <trkpt lat="48.99826" lon="1.09714">
        <ele>63.1</ele>
        <time>2011-11-23T18:05:25Z</time>
      </trkpt>
      <trkpt lat="48.99825" lon="1.09703">
        <ele>65.51</ele>
        <time>2011-11-23T18:05:28Z</time>
      </trkpt>
      <trkpt lat="48.99825" lon="1.09699">
        <ele>62.14</ele>
        <time>2011-11-23T18:05:29Z</time>
      </trkpt>
      <trkpt lat="48.99824" lon="1.09696">
        <ele>63.1</ele>
        <time>2011-11-23T18:05:30Z</time>
      </trkpt>
      <trkpt lat="48.99823" lon="1.09688">
        <ele>64.55</ele>
        <time>2011-11-23T18:05:32Z</time>
      </trkpt>
      <trkpt lat="48.9982" lon="1.09641">
        <ele>65.03</ele>
        <time>2011-11-23T18:05:44Z</time>
      </trkpt>
      <trkpt lat="48.99813" lon="1.09581">
        <ele>63.58</ele>
        <time>2011-11-23T18:06:00Z</time>
      </trkpt>
      <trkpt lat="48.99812" lon="1.09573">
        <ele>65.03</ele>
        <time>2011-11-23T18:06:02Z</time>
      </trkpt>
      <trkpt lat="48.99798" lon="1.09517">
        <ele>65.03</ele>
        <time>2011-11-23T18:06:17Z</time>
      </trkpt>
      <trkpt lat="48.99777" lon="1.09453">
        <ele>63.1</ele>
        <time>2011-11-23T18:06:35Z</time>
      </trkpt>
      <trkpt lat="48.99769" lon="1.09429">
        <ele>64.07</ele>
        <time>2011-11-23T18:06:42Z</time>
      </trkpt>
      <trkpt lat="48.99759" lon="1.0941">
        <ele>64.07</ele>
        <time>2011-11-23T18:06:49Z</time>
      </trkpt>
      <trkpt lat="48.99748" lon="1.09371">
        <ele>64.07</ele>
        <time>2011-11-23T18:07:01Z</time>
      </trkpt>
      <trkpt lat="48.99731" lon="1.09317">
        <ele>65.99</ele>
        <time>2011-11-23T18:07:15Z</time>
      </trkpt>
      <trkpt lat="48.99718" lon="1.09269">
        <ele>63.1</ele>
        <time>2011-11-23T18:07:29Z</time>
      </trkpt>
      <trkpt lat="48.99716" lon="1.09258">
        <ele>66.47</ele>
        <time>2011-11-23T18:07:32Z</time>
      </trkpt>
      <trkpt lat="48.99707" lon="1.09224">
        <ele>63.1</ele>
        <time>2011-11-23T18:07:43Z</time>
      </trkpt>
      <trkpt lat="48.99692" lon="1.09172">
        <ele>65.03</ele>
        <time>2011-11-23T18:07:57Z</time>
      </trkpt>
      <trkpt lat="48.99689" lon="1.09161">
        <ele>63.1</ele>
        <time>2011-11-23T18:08:00Z</time>
      </trkpt>
      <trkpt lat="48.99682" lon="1.09139">
        <ele>64.55</ele>
        <time>2011-11-23T18:08:07Z</time>
      </trkpt>
      <trkpt lat="48.99667" lon="1.09093">
        <ele>65.03</ele>
        <time>2011-11-23T18:08:20Z</time>
      </trkpt>
      <trkpt lat="48.99663" lon="1.09068">
        <ele>65.51</ele>
        <time>2011-11-23T18:08:27Z</time>
      </trkpt>
      <trkpt lat="48.99656" lon="1.09013">
        <ele>65.51</ele>
        <time>2011-11-23T18:08:42Z</time>
      </trkpt>
      <trkpt lat="48.99639" lon="1.08959">
        <ele>64.55</ele>
        <time>2011-11-23T18:08:57Z</time>
      </trkpt>
      <trkpt lat="48.99627" lon="1.08921">
        <ele>65.03</ele>
        <time>2011-11-23T18:09:08Z</time>
      </trkpt>
      <trkpt lat="48.99613" lon="1.08879">
        <ele>63.58</ele>
        <time>2011-11-23T18:09:21Z</time>
      </trkpt>
      <trkpt lat="48.9961" lon="1.08868">
        <ele>65.03</ele>
        <time>2011-11-23T18:09:24Z</time>
      </trkpt>
      <trkpt lat="48.99597" lon="1.08823">
        <ele>64.55</ele>
        <time>2011-11-23T18:09:37Z</time>
      </trkpt>
      <trkpt lat="48.99592" lon="1.08806">
        <ele>65.03</ele>
        <time>2011-11-23T18:09:42Z</time>
      </trkpt>
      <trkpt lat="48.9958" lon="1.08762">
        <ele>66.95</ele>
        <time>2011-11-23T18:09:55Z</time>
      </trkpt>
      <trkpt lat="48.99579" lon="1.08758">
        <ele>63.58</ele>
        <time>2011-11-23T18:09:56Z</time>
      </trkpt>
      <trkpt lat="48.99562" lon="1.08711">
        <ele>64.55</ele>
        <time>2011-11-23T18:10:10Z</time>
      </trkpt>
      <trkpt lat="48.99549" lon="1.08662">
        <ele>63.58</ele>
        <time>2011-11-23T18:10:24Z</time>
      </trkpt>
      <trkpt lat="48.9954" lon="1.08617">
        <ele>65.03</ele>
        <time>2011-11-23T18:10:36Z</time>
      </trkpt>
      <trkpt lat="48.9953" lon="1.08567">
        <ele>64.55</ele>
        <time>2011-11-23T18:10:50Z</time>
      </trkpt>
      <trkpt lat="48.99529" lon="1.08559">
        <ele>66.47</ele>
        <time>2011-11-23T18:10:52Z</time>
      </trkpt>
      <trkpt lat="48.99526" lon="1.08541">
        <ele>66.95</ele>
        <time>2011-11-23T18:10:57Z</time>
      </trkpt>
      <trkpt lat="48.99519" lon="1.08492">
        <ele>65.99</ele>
        <time>2011-11-23T18:11:10Z</time>
      </trkpt>
      <trkpt lat="48.99514" lon="1.08452">
        <ele>64.07</ele>
        <time>2011-11-23T18:11:21Z</time>
      </trkpt>
      <trkpt lat="48.99508" lon="1.08405">
        <ele>65.99</ele>
        <time>2011-11-23T18:11:34Z</time>
      </trkpt>
      <trkpt lat="48.995" lon="1.08357">
        <ele>65.51</ele>
        <time>2011-11-23T18:11:47Z</time>
      </trkpt>
      <trkpt lat="48.99492" lon="1.08317">
        <ele>65.51</ele>
        <time>2011-11-23T18:11:58Z</time>
      </trkpt>
      <trkpt lat="48.9948" lon="1.08262">
        <ele>65.51</ele>
        <time>2011-11-23T18:12:14Z</time>
      </trkpt>
      <trkpt lat="48.9947" lon="1.08228">
        <ele>66.95</ele>
        <time>2011-11-23T18:12:24Z</time>
      </trkpt>
      <trkpt lat="48.99468" lon="1.0822">
        <ele>65.51</ele>
        <time>2011-11-23T18:12:26Z</time>
      </trkpt>
      <trkpt lat="48.99457" lon="1.08159">
        <ele>66.95</ele>
        <time>2011-11-23T18:12:42Z</time>
      </trkpt>
      <trkpt lat="48.99451" lon="1.08108">
        <ele>65.99</ele>
        <time>2011-11-23T18:12:56Z</time>
      </trkpt>
      <trkpt lat="48.99446" lon="1.08059">
        <ele>65.99</ele>
        <time>2011-11-23T18:13:09Z</time>
      </trkpt>
      <trkpt lat="48.99445" lon="1.08043">
        <ele>65.03</ele>
        <time>2011-11-23T18:13:13Z</time>
      </trkpt>
      <trkpt lat="48.99445" lon="1.07993">
        <ele>68.39</ele>
        <time>2011-11-23T18:13:25Z</time>
      </trkpt>
      <trkpt lat="48.99445" lon="1.07989">
        <ele>65.03</ele>
        <time>2011-11-23T18:13:26Z</time>
      </trkpt>
      <trkpt lat="48.99446" lon="1.07925">
        <ele>65.99</ele>
        <time>2011-11-23T18:13:43Z</time>
      </trkpt>
      <trkpt lat="48.99446" lon="1.07914">
        <ele>65.03</ele>
        <time>2011-11-23T18:13:46Z</time>
      </trkpt>
      <trkpt lat="48.99446" lon="1.07879">
        <ele>65.99</ele>
        <time>2011-11-23T18:13:55Z</time>
      </trkpt>
      <trkpt lat="48.99446" lon="1.07868">
        <ele>64.55</ele>
        <time>2011-11-23T18:13:58Z</time>
      </trkpt>
      <trkpt lat="48.99446" lon="1.07861">
        <ele>67.91</ele>
        <time>2011-11-23T18:14:00Z</time>
      </trkpt>
      <trkpt lat="48.99446" lon="1.07857">
        <ele>65.03</ele>
        <time>2011-11-23T18:14:01Z</time>
      </trkpt>
      <trkpt lat="48.99447" lon="1.07846">
        <ele>67.91</ele>
        <time>2011-11-23T18:14:04Z</time>
      </trkpt>
      <trkpt lat="48.99447" lon="1.07832">
        <ele>64.55</ele>
        <time>2011-11-23T18:14:08Z</time>
      </trkpt>
      <trkpt lat="48.99448" lon="1.07779">
        <ele>65.03</ele>
        <time>2011-11-23T18:14:22Z</time>
      </trkpt>
      <trkpt lat="48.99455" lon="1.07728">
        <ele>67.91</ele>
        <time>2011-11-23T18:14:37Z</time>
      </trkpt>
      <trkpt lat="48.99457" lon="1.07725">
        <ele>66.47</ele>
        <time>2011-11-23T18:14:38Z</time>
      </trkpt>
      <trkpt lat="48.99491" lon="1.07693">
        <ele>65.03</ele>
        <time>2011-11-23T18:14:54Z</time>
      </trkpt>
      <trkpt lat="48.99494" lon="1.07691">
        <ele>68.39</ele>
        <time>2011-11-23T18:14:55Z</time>
      </trkpt>
      <trkpt lat="48.99508" lon="1.07681">
        <ele>65.51</ele>
        <time>2011-11-23T18:15:01Z</time>
      </trkpt>
      <trkpt lat="48.99524" lon="1.07669">
        <ele>67.43</ele>
        <time>2011-11-23T18:15:08Z</time>
      </trkpt>
      <trkpt lat="48.99548" lon="1.07654">
        <ele>63.58</ele>
        <time>2011-11-23T18:15:18Z</time>
      </trkpt>
      <trkpt lat="48.99562" lon="1.07647">
        <ele>67.43</ele>
        <time>2011-11-23T18:15:24Z</time>
      </trkpt>
      <trkpt lat="48.99572" lon="1.07638">
        <ele>64.07</ele>
        <time>2011-11-23T18:15:29Z</time>
      </trkpt>
      <trkpt lat="48.99583" lon="1.07617">
        <ele>67.91</ele>
        <time>2011-11-23T18:15:36Z</time>
      </trkpt>
      <trkpt lat="48.99584" lon="1.07614">
        <ele>67.43</ele>
        <time>2011-11-23T18:15:37Z</time>
      </trkpt>
      <trkpt lat="48.99584" lon="1.07607">
        <ele>65.03</ele>
        <time>2011-11-23T18:15:39Z</time>
      </trkpt>
      <trkpt lat="48.99584" lon="1.07588">
        <ele>65.99</ele>
        <time>2011-11-23T18:15:44Z</time>
      </trkpt>
      <trkpt lat="48.99593" lon="1.07544">
        <ele>65.99</ele>
        <time>2011-11-23T18:15:57Z</time>
      </trkpt>
      <trkpt lat="48.99621" lon="1.07525">
        <ele>64.07</ele>
        <time>2011-11-23T18:16:09Z</time>
      </trkpt>
      <trkpt lat="48.99635" lon="1.07515">
        <ele>67.91</ele>
        <time>2011-11-23T18:16:15Z</time>
      </trkpt>
      <trkpt lat="48.99659" lon="1.07496">
        <ele>68.87</ele>
        <time>2011-11-23T18:16:27Z</time>
      </trkpt>
      <trkpt lat="48.99664" lon="1.07493">
        <ele>66.95</ele>
        <time>2011-11-23T18:16:29Z</time>
      </trkpt>
      <trkpt lat="48.9969" lon="1.07471">
        <ele>67.43</ele>
        <time>2011-11-23T18:16:42Z</time>
      </trkpt>
      <trkpt lat="48.99695" lon="1.07467">
        <ele>69.35</ele>
        <time>2011-11-23T18:16:44Z</time>
      </trkpt>
      <trkpt lat="48.99721" lon="1.07444">
        <ele>66.95</ele>
        <time>2011-11-23T18:16:56Z</time>
      </trkpt>
      <trkpt lat="48.99749" lon="1.07429">
        <ele>68.87</ele>
        <time>2011-11-23T18:17:08Z</time>
      </trkpt>
      <trkpt lat="48.99782" lon="1.07404">
        <ele>70.31</ele>
        <time>2011-11-23T18:17:23Z</time>
      </trkpt>
      <trkpt lat="48.99812" lon="1.07377">
        <ele>70.79</ele>
        <time>2011-11-23T18:17:38Z</time>
      </trkpt>
      <trkpt lat="48.99839" lon="1.0737">
        <ele>70.31</ele>
        <time>2011-11-23T18:17:51Z</time>
      </trkpt>
      <trkpt lat="48.99864" lon="1.07389">
        <ele>71.76</ele>
        <time>2011-11-23T18:18:04Z</time>
      </trkpt>
      <trkpt lat="48.99877" lon="1.07402">
        <ele>74.64</ele>
        <time>2011-11-23T18:18:12Z</time>
      </trkpt>
      <trkpt lat="48.99888" lon="1.07408">
        <ele>74.64</ele>
        <time>2011-11-23T18:18:18Z</time>
      </trkpt>
      <trkpt lat="48.99905" lon="1.07417">
        <ele>76.08</ele>
        <time>2011-11-23T18:18:29Z</time>
      </trkpt>
      <trkpt lat="48.99922" lon="1.07423">
        <ele>79.93</ele>
        <time>2011-11-23T18:18:40Z</time>
      </trkpt>
      <trkpt lat="48.99923" lon="1.07424">
        <ele>76.56</ele>
        <time>2011-11-23T18:18:41Z</time>
      </trkpt>
      <trkpt lat="48.99937" lon="1.07425">
        <ele>78.97</ele>
        <time>2011-11-23T18:18:48Z</time>
      </trkpt>
      <trkpt lat="48.99962" lon="1.07422">
        <ele>78.48</ele>
        <time>2011-11-23T18:19:01Z</time>
      </trkpt>
      <trkpt lat="48.99973" lon="1.0742">
        <ele>81.85</ele>
        <time>2011-11-23T18:19:07Z</time>
      </trkpt>
      <trkpt lat="48.9999" lon="1.07421">
        <ele>82.81</ele>
        <time>2011-11-23T18:19:17Z</time>
      </trkpt>
      <trkpt lat="48.99994" lon="1.07422">
        <ele>81.85</ele>
        <time>2011-11-23T18:19:19Z</time>
      </trkpt>
      <trkpt lat="49.00001" lon="1.07424">
        <ele>84.73</ele>
        <time>2011-11-23T18:19:23Z</time>
      </trkpt>
      <trkpt lat="49.00005" lon="1.07425">
        <ele>82.33</ele>
        <time>2011-11-23T18:19:25Z</time>
      </trkpt>
      <trkpt lat="49.00007" lon="1.07426">
        <ele>86.18</ele>
        <time>2011-11-23T18:19:26Z</time>
      </trkpt>
      <trkpt lat="49.00008" lon="1.07426">
        <ele>83.77</ele>
        <time>2011-11-23T18:19:27Z</time>
      </trkpt>
      <trkpt lat="49.00021" lon="1.07428">
        <ele>84.73</ele>
        <time>2011-11-23T18:19:34Z</time>
      </trkpt>
      <trkpt lat="49.00025" lon="1.07426">
        <ele>86.18</ele>
        <time>2011-11-23T18:19:37Z</time>
      </trkpt>
      <trkpt lat="49.00027" lon="1.07422">
        <ele>87.62</ele>
        <time>2011-11-23T18:19:39Z</time>
      </trkpt>
      <trkpt lat="49.00028" lon="1.07414">
        <ele>86.18</ele>
        <time>2011-11-23T18:19:44Z</time>
      </trkpt>
      <trkpt lat="49.00029" lon="1.07403">
        <ele>87.62</ele>
        <time>2011-11-23T18:19:50Z</time>
      </trkpt>
      <trkpt lat="49.00017" lon="1.07392">
        <ele>90.5</ele>
        <time>2011-11-23T18:19:59Z</time>
      </trkpt>
      <trkpt lat="49.00014" lon="1.07389">
        <ele>87.14</ele>
        <time>2011-11-23T18:20:01Z</time>
      </trkpt>
      <trkpt lat="49.00012" lon="1.07387">
        <ele>90.98</ele>
        <time>2011-11-23T18:20:02Z</time>
      </trkpt>
      <trkpt lat="49.00011" lon="1.07385">
        <ele>89.06</ele>
        <time>2011-11-23T18:20:03Z</time>
      </trkpt>
      <trkpt lat="49.00001" lon="1.07364">
        <ele>91.94</ele>
        <time>2011-11-23T18:20:13Z</time>
      </trkpt>
      <trkpt lat="48.99993" lon="1.07349">
        <ele>91.94</ele>
        <time>2011-11-23T18:20:23Z</time>
      </trkpt>
      <trkpt lat="48.99992" lon="1.07346">
        <ele>93.39</ele>
        <time>2011-11-23T18:20:25Z</time>
      </trkpt>
      <trkpt lat="48.9999" lon="1.07336">
        <ele>92.9</ele>
        <time>2011-11-23T18:20:30Z</time>
      </trkpt>
      <trkpt lat="48.99991" lon="1.07308">
        <ele>97.71</ele>
        <time>2011-11-23T18:20:41Z</time>
      </trkpt>
      <trkpt lat="48.99992" lon="1.07304">
        <ele>97.23</ele>
        <time>2011-11-23T18:20:42Z</time>
      </trkpt>
      <trkpt lat="48.99993" lon="1.07298">
        <ele>96.27</ele>
        <time>2011-11-23T18:20:44Z</time>
      </trkpt>
      <trkpt lat="48.99996" lon="1.07287">
        <ele>97.71</ele>
        <time>2011-11-23T18:20:48Z</time>
      </trkpt>
      <trkpt lat="49.00004" lon="1.07265">
        <ele>98.67</ele>
        <time>2011-11-23T18:20:57Z</time>
      </trkpt>
      <trkpt lat="49.00006" lon="1.07255">
        <ele>101.56</ele>
        <time>2011-11-23T18:21:01Z</time>
      </trkpt>
      <trkpt lat="49.00012" lon="1.07242">
        <ele>100.11</ele>
        <time>2011-11-23T18:21:08Z</time>
      </trkpt>
      <trkpt lat="49.00014" lon="1.07239">
        <ele>102.52</ele>
        <time>2011-11-23T18:21:10Z</time>
      </trkpt>
      <trkpt lat="49.00019" lon="1.07228">
        <ele>103.48</ele>
        <time>2011-11-23T18:21:16Z</time>
      </trkpt>
      <trkpt lat="49.00033" lon="1.07206">
        <ele>104.92</ele>
        <time>2011-11-23T18:21:28Z</time>
      </trkpt>
      <trkpt lat="49.00038" lon="1.07202">
        <ele>106.36</ele>
        <time>2011-11-23T18:21:32Z</time>
      </trkpt>
      <trkpt lat="49.00054" lon="1.07183">
        <ele>107.81</ele>
        <time>2011-11-23T18:21:44Z</time>
      </trkpt>
      <trkpt lat="49.00055" lon="1.07181">
        <ele>107.81</ele>
        <time>2011-11-23T18:21:45Z</time>
      </trkpt>
      <trkpt lat="49.00056" lon="1.07177">
        <ele>108.29</ele>
        <time>2011-11-23T18:21:47Z</time>
      </trkpt>
      <trkpt lat="49.00057" lon="1.07173">
        <ele>109.73</ele>
        <time>2011-11-23T18:21:49Z</time>
      </trkpt>
      <trkpt lat="49.00058" lon="1.07163">
        <ele>111.65</ele>
        <time>2011-11-23T18:21:55Z</time>
      </trkpt>
      <trkpt lat="49.00058" lon="1.07155">
        <ele>112.61</ele>
        <time>2011-11-23T18:21:59Z</time>
      </trkpt>
      <trkpt lat="49.00058" lon="1.07147">
        <ele>111.65</ele>
        <time>2011-11-23T18:22:02Z</time>
      </trkpt>
      <trkpt lat="49.0006" lon="1.07128">
        <ele>114.53</ele>
        <time>2011-11-23T18:22:10Z</time>
      </trkpt>
      <trkpt lat="49.00064" lon="1.07106">
        <ele>116.46</ele>
        <time>2011-11-23T18:22:19Z</time>
      </trkpt>
      <trkpt lat="49.00065" lon="1.07101">
        <ele>114.05</ele>
        <time>2011-11-23T18:22:21Z</time>
      </trkpt>
      <trkpt lat="49.00068" lon="1.07087">
        <ele>116.94</ele>
        <time>2011-11-23T18:22:27Z</time>
      </trkpt>
      <trkpt lat="49.00076" lon="1.07055">
        <ele>118.38</ele>
        <time>2011-11-23T18:22:40Z</time>
      </trkpt>
      <trkpt lat="49.00082" lon="1.0704">
        <ele>117.42</ele>
        <time>2011-11-23T18:22:46Z</time>
      </trkpt>
      <trkpt lat="49.00091" lon="1.07024">
        <ele>120.3</ele>
        <time>2011-11-23T18:22:52Z</time>
      </trkpt>
      <trkpt lat="49.00092" lon="1.07022">
        <ele>119.34</ele>
        <time>2011-11-23T18:22:53Z</time>
      </trkpt>
      <trkpt lat="49.00104" lon="1.07004">
        <ele>121.26</ele>
        <time>2011-11-23T18:23:03Z</time>
      </trkpt>
      <trkpt lat="49.00116" lon="1.06997">
        <ele>121.74</ele>
        <time>2011-11-23T18:23:09Z</time>
      </trkpt>
      <trkpt lat="49.00144" lon="1.06988">
        <ele>121.26</ele>
        <time>2011-11-23T18:23:22Z</time>
      </trkpt>
      <trkpt lat="49.00155" lon="1.06984">
        <ele>122.71</ele>
        <time>2011-11-23T18:23:27Z</time>
      </trkpt>
      <trkpt lat="49.00167" lon="1.06979">
        <ele>121.74</ele>
        <time>2011-11-23T18:23:32Z</time>
      </trkpt>
      <trkpt lat="49.00195" lon="1.06967">
        <ele>122.71</ele>
        <time>2011-11-23T18:23:45Z</time>
      </trkpt>
      <trkpt lat="49.00228" lon="1.06956">
        <ele>123.19</ele>
        <time>2011-11-23T18:24:00Z</time>
      </trkpt>
      <trkpt lat="49.0023" lon="1.06956">
        <ele>123.19</ele>
        <time>2011-11-23T18:24:01Z</time>
      </trkpt>
      <trkpt lat="49.00251" lon="1.06946">
        <ele>124.63</ele>
        <time>2011-11-23T18:24:11Z</time>
      </trkpt>
      <trkpt lat="49.00255" lon="1.06944">
        <ele>123.67</ele>
        <time>2011-11-23T18:24:13Z</time>
      </trkpt>
      <trkpt lat="49.00268" lon="1.06937">
        <ele>125.59</ele>
        <time>2011-11-23T18:24:19Z</time>
      </trkpt>
      <trkpt lat="49.00272" lon="1.06934">
        <ele>122.71</ele>
        <time>2011-11-23T18:24:21Z</time>
      </trkpt>
      <trkpt lat="49.00298" lon="1.06912">
        <ele>124.15</ele>
        <time>2011-11-23T18:24:35Z</time>
      </trkpt>
      <trkpt lat="49.00301" lon="1.06907">
        <ele>125.11</ele>
        <time>2011-11-23T18:24:37Z</time>
      </trkpt>
      <trkpt lat="49.00326" lon="1.06869">
        <ele>124.15</ele>
        <time>2011-11-23T18:24:53Z</time>
      </trkpt>
      <trkpt lat="49.00329" lon="1.06864">
        <ele>124.15</ele>
        <time>2011-11-23T18:24:55Z</time>
      </trkpt>
      <trkpt lat="49.00337" lon="1.06847">
        <ele>124.63</ele>
        <time>2011-11-23T18:25:02Z</time>
      </trkpt>
      <trkpt lat="49.00343" lon="1.06834">
        <ele>123.19</ele>
        <time>2011-11-23T18:25:07Z</time>
      </trkpt>
      <trkpt lat="49.00345" lon="1.06831">
        <ele>125.11</ele>
        <time>2011-11-23T18:25:08Z</time>
      </trkpt>
      <trkpt lat="49.00357" lon="1.0681">
        <ele>125.11</ele>
        <time>2011-11-23T18:25:15Z</time>
      </trkpt>
      <trkpt lat="49.00359" lon="1.06807">
        <ele>125.11</ele>
        <time>2011-11-23T18:25:16Z</time>
      </trkpt>
      <trkpt lat="49.00383" lon="1.06781">
        <ele>124.63</ele>
        <time>2011-11-23T18:25:28Z</time>
      </trkpt>
      <trkpt lat="49.00387" lon="1.06778">
        <ele>124.63</ele>
        <time>2011-11-23T18:25:30Z</time>
      </trkpt>
      <trkpt lat="49.00396" lon="1.06768">
        <ele>125.59</ele>
        <time>2011-11-23T18:25:35Z</time>
      </trkpt>
      <trkpt lat="49.004" lon="1.06766">
        <ele>124.63</ele>
        <time>2011-11-23T18:25:37Z</time>
      </trkpt>
      <trkpt lat="49.0043" lon="1.06739">
        <ele>122.22</ele>
        <time>2011-11-23T18:25:51Z</time>
      </trkpt>
      <trkpt lat="49.00461" lon="1.06717">
        <ele>123.19</ele>
        <time>2011-11-23T18:26:03Z</time>
      </trkpt>
      <trkpt lat="49.00487" lon="1.06701">
        <ele>123.19</ele>
        <time>2011-11-23T18:26:14Z</time>
      </trkpt>
      <trkpt lat="49.00501" lon="1.06695">
        <ele>120.3</ele>
        <time>2011-11-23T18:26:19Z</time>
      </trkpt>
      <trkpt lat="49.00526" lon="1.06686">
        <ele>123.19</ele>
        <time>2011-11-23T18:26:29Z</time>
      </trkpt>
      <trkpt lat="49.00529" lon="1.06686">
        <ele>118.86</ele>
        <time>2011-11-23T18:26:30Z</time>
      </trkpt>
      <trkpt lat="49.00558" lon="1.06679">
        <ele>120.3</ele>
        <time>2011-11-23T18:26:42Z</time>
      </trkpt>
      <trkpt lat="49.00591" lon="1.06667">
        <ele>119.34</ele>
        <time>2011-11-23T18:26:55Z</time>
      </trkpt>
      <trkpt lat="49.00621" lon="1.06656">
        <ele>120.78</ele>
        <time>2011-11-23T18:27:08Z</time>
      </trkpt>
      <trkpt lat="49.00623" lon="1.06655">
        <ele>120.3</ele>
        <time>2011-11-23T18:27:09Z</time>
      </trkpt>
      <trkpt lat="49.00651" lon="1.06646">
        <ele>119.82</ele>
        <time>2011-11-23T18:27:21Z</time>
      </trkpt>
      <trkpt lat="49.00661" lon="1.06641">
        <ele>122.22</ele>
        <time>2011-11-23T18:27:26Z</time>
      </trkpt>
      <trkpt lat="49.00687" lon="1.06624">
        <ele>121.26</ele>
        <time>2011-11-23T18:27:39Z</time>
      </trkpt>
      <trkpt lat="49.00717" lon="1.06583">
        <ele>121.26</ele>
        <time>2011-11-23T18:27:54Z</time>
      </trkpt>
      <trkpt lat="49.00722" lon="1.06576">
        <ele>124.15</ele>
        <time>2011-11-23T18:27:57Z</time>
      </trkpt>
      <trkpt lat="49.00735" lon="1.06561">
        <ele>123.19</ele>
        <time>2011-11-23T18:28:04Z</time>
      </trkpt>
      <trkpt lat="49.00761" lon="1.0653">
        <ele>124.15</ele>
        <time>2011-11-23T18:28:17Z</time>
      </trkpt>
      <trkpt lat="49.00767" lon="1.06522">
        <ele>120.3</ele>
        <time>2011-11-23T18:28:20Z</time>
      </trkpt>
      <trkpt lat="49.0077" lon="1.06518">
        <ele>123.67</ele>
        <time>2011-11-23T18:28:22Z</time>
      </trkpt>
      <trkpt lat="49.00788" lon="1.06494">
        <ele>121.26</ele>
        <time>2011-11-23T18:28:31Z</time>
      </trkpt>
      <trkpt lat="49.00824" lon="1.06465">
        <ele>120.78</ele>
        <time>2011-11-23T18:28:47Z</time>
      </trkpt>
      <trkpt lat="49.00845" lon="1.06453">
        <ele>125.11</ele>
        <time>2011-11-23T18:28:57Z</time>
      </trkpt>
      <trkpt lat="49.0085" lon="1.0645">
        <ele>122.22</ele>
        <time>2011-11-23T18:28:59Z</time>
      </trkpt>
      <trkpt lat="49.00882" lon="1.06435">
        <ele>119.34</ele>
        <time>2011-11-23T18:29:12Z</time>
      </trkpt>
      <trkpt lat="49.00898" lon="1.06424">
        <ele>122.71</ele>
        <time>2011-11-23T18:29:19Z</time>
      </trkpt>
      <trkpt lat="49.00905" lon="1.0642">
        <ele>118.86</ele>
        <time>2011-11-23T18:29:22Z</time>
      </trkpt>
      <trkpt lat="49.00914" lon="1.06413">
        <ele>119.82</ele>
        <time>2011-11-23T18:29:26Z</time>
      </trkpt>
      <trkpt lat="49.00926" lon="1.06405">
        <ele>117.9</ele>
        <time>2011-11-23T18:29:31Z</time>
      </trkpt>
      <trkpt lat="49.00961" lon="1.06374">
        <ele>114.53</ele>
        <time>2011-11-23T18:29:45Z</time>
      </trkpt>
      <trkpt lat="49.00981" lon="1.06356">
        <ele>118.38</ele>
        <time>2011-11-23T18:29:53Z</time>
      </trkpt>
      <trkpt lat="49.00983" lon="1.06353">
        <ele>114.05</ele>
        <time>2011-11-23T18:29:54Z</time>
      </trkpt>
      <trkpt lat="49.01" lon="1.06332">
        <ele>110.69</ele>
        <time>2011-11-23T18:30:02Z</time>
      </trkpt>
      <trkpt lat="49.01002" lon="1.06328">
        <ele>117.42</ele>
        <time>2011-11-23T18:30:03Z</time>
      </trkpt>
      <trkpt lat="49.01004" lon="1.06325">
        <ele>113.57</ele>
        <time>2011-11-23T18:30:04Z</time>
      </trkpt>
      <trkpt lat="49.01012" lon="1.06308">
        <ele>112.61</ele>
        <time>2011-11-23T18:30:09Z</time>
      </trkpt>
      <trkpt lat="49.01039" lon="1.06252">
        <ele>112.61</ele>
        <time>2011-11-23T18:30:25Z</time>
      </trkpt>
      <trkpt lat="49.01057" lon="1.06215">
        <ele>110.69</ele>
        <time>2011-11-23T18:30:37Z</time>
      </trkpt>
      <trkpt lat="49.0106" lon="1.06209">
        <ele>113.09</ele>
        <time>2011-11-23T18:30:39Z</time>
      </trkpt>
      <trkpt lat="49.01064" lon="1.06204">
        <ele>110.69</ele>
        <time>2011-11-23T18:30:41Z</time>
      </trkpt>
      <trkpt lat="49.01067" lon="1.062">
        <ele>114.53</ele>
        <time>2011-11-23T18:30:43Z</time>
      </trkpt>
      <trkpt lat="49.01069" lon="1.06197">
        <ele>110.21</ele>
        <time>2011-11-23T18:30:44Z</time>
      </trkpt>
      <trkpt lat="49.01075" lon="1.06192">
        <ele>113.57</ele>
        <time>2011-11-23T18:30:47Z</time>
      </trkpt>
      <trkpt lat="49.01104" lon="1.06171">
        <ele>113.09</ele>
        <time>2011-11-23T18:31:01Z</time>
      </trkpt>
      <trkpt lat="49.01116" lon="1.06163">
        <ele>114.53</ele>
        <time>2011-11-23T18:31:07Z</time>
      </trkpt>
      <trkpt lat="49.0112" lon="1.0616">
        <ele>113.57</ele>
        <time>2011-11-23T18:31:09Z</time>
      </trkpt>
      <trkpt lat="49.01124" lon="1.06157">
        <ele>114.05</ele>
        <time>2011-11-23T18:31:11Z</time>
      </trkpt>
      <trkpt lat="49.01128" lon="1.06154">
        <ele>112.61</ele>
        <time>2011-11-23T18:31:13Z</time>
      </trkpt>
      <trkpt lat="49.01137" lon="1.06148">
        <ele>115.5</ele>
        <time>2011-11-23T18:31:17Z</time>
      </trkpt>
      <trkpt lat="49.01139" lon="1.06146">
        <ele>114.53</ele>
        <time>2011-11-23T18:31:18Z</time>
      </trkpt>
      <trkpt lat="49.01151" lon="1.06138">
        <ele>115.5</ele>
        <time>2011-11-23T18:31:24Z</time>
      </trkpt>
      <trkpt lat="49.01162" lon="1.06132">
        <ele>115.01</ele>
        <time>2011-11-23T18:31:29Z</time>
      </trkpt>
      <trkpt lat="49.01164" lon="1.06131">
        <ele>111.65</ele>
        <time>2011-11-23T18:31:30Z</time>
      </trkpt>
      <trkpt lat="49.01166" lon="1.0613">
        <ele>115.01</ele>
        <time>2011-11-23T18:31:31Z</time>
      </trkpt>
      <trkpt lat="49.01177" lon="1.06123">
        <ele>114.05</ele>
        <time>2011-11-23T18:31:36Z</time>
      </trkpt>
      <trkpt lat="49.01198" lon="1.06111">
        <ele>115.98</ele>
        <time>2011-11-23T18:31:46Z</time>
      </trkpt>
      <trkpt lat="49.01215" lon="1.06101">
        <ele>113.57</ele>
        <time>2011-11-23T18:31:54Z</time>
      </trkpt>
      <trkpt lat="49.01221" lon="1.06097">
        <ele>117.42</ele>
        <time>2011-11-23T18:31:57Z</time>
      </trkpt>
      <trkpt lat="49.01255" lon="1.0609">
        <ele>116.94</ele>
        <time>2011-11-23T18:32:11Z</time>
      </trkpt>
      <trkpt lat="49.01268" lon="1.0609">
        <ele>113.57</ele>
        <time>2011-11-23T18:32:17Z</time>
      </trkpt>
      <trkpt lat="49.01275" lon="1.06089">
        <ele>117.42</ele>
        <time>2011-11-23T18:32:20Z</time>
      </trkpt>
      <trkpt lat="49.01285" lon="1.06087">
        <ele>113.57</ele>
        <time>2011-11-23T18:32:24Z</time>
      </trkpt>
      <trkpt lat="49.01304" lon="1.06082">
        <ele>116.46</ele>
        <time>2011-11-23T18:32:32Z</time>
      </trkpt>
      <trkpt lat="49.01307" lon="1.06082">
        <ele>113.57</ele>
        <time>2011-11-23T18:32:33Z</time>
      </trkpt>
      <trkpt lat="49.01312" lon="1.0608">
        <ele>118.86</ele>
        <time>2011-11-23T18:32:35Z</time>
      </trkpt>
      <trkpt lat="49.01314" lon="1.06079">
        <ele>117.9</ele>
        <time>2011-11-23T18:32:36Z</time>
      </trkpt>
      <trkpt lat="49.01321" lon="1.06076">
        <ele>116.46</ele>
        <time>2011-11-23T18:32:39Z</time>
      </trkpt>
      <trkpt lat="49.01332" lon="1.06072">
        <ele>113.09</ele>
        <time>2011-11-23T18:32:43Z</time>
      </trkpt>
      <trkpt lat="49.01366" lon="1.06046">
        <ele>112.61</ele>
        <time>2011-11-23T18:32:57Z</time>
      </trkpt>
      <trkpt lat="49.01385" lon="1.06">
        <ele>110.69</ele>
        <time>2011-11-23T18:33:11Z</time>
      </trkpt>
      <trkpt lat="49.01386" lon="1.05993">
        <ele>112.61</ele>
        <time>2011-11-23T18:33:13Z</time>
      </trkpt>
      <trkpt lat="49.01389" lon="1.05958">
        <ele>113.09</ele>
        <time>2011-11-23T18:33:22Z</time>
      </trkpt>
      <trkpt lat="49.0139" lon="1.0595">
        <ele>109.25</ele>
        <time>2011-11-23T18:33:24Z</time>
      </trkpt>
      <trkpt lat="49.0139" lon="1.05937">
        <ele>112.61</ele>
        <time>2011-11-23T18:33:27Z</time>
      </trkpt>
      <trkpt lat="49.01389" lon="1.05933">
        <ele>109.25</ele>
        <time>2011-11-23T18:33:28Z</time>
      </trkpt>
      <trkpt lat="49.01391" lon="1.05917">
        <ele>108.77</ele>
        <time>2011-11-23T18:33:32Z</time>
      </trkpt>
      <trkpt lat="49.01397" lon="1.059">
        <ele>106.36</ele>
        <time>2011-11-23T18:33:37Z</time>
      </trkpt>
      <trkpt lat="49.01423" lon="1.05899">
        <ele>104.92</ele>
        <time>2011-11-23T18:33:47Z</time>
      </trkpt>
      <trkpt lat="49.01432" lon="1.05907">
        <ele>103.48</ele>
        <time>2011-11-23T18:33:50Z</time>
      </trkpt>
      <trkpt lat="49.01452" lon="1.05959">
        <ele>100.6</ele>
        <time>2011-11-23T18:34:03Z</time>
      </trkpt>
      <trkpt lat="49.01458" lon="1.05988">
        <ele>96.27</ele>
        <time>2011-11-23T18:34:10Z</time>
      </trkpt>
      <trkpt lat="49.01459" lon="1.05992">
        <ele>99.63</ele>
        <time>2011-11-23T18:34:11Z</time>
      </trkpt>
      <trkpt lat="49.01466" lon="1.06017">
        <ele>98.19</ele>
        <time>2011-11-23T18:34:17Z</time>
      </trkpt>
      <trkpt lat="49.01469" lon="1.06025">
        <ele>94.83</ele>
        <time>2011-11-23T18:34:19Z</time>
      </trkpt>
      <trkpt lat="49.01474" lon="1.06041">
        <ele>98.67</ele>
        <time>2011-11-23T18:34:23Z</time>
      </trkpt>
      <trkpt lat="49.01477" lon="1.06049">
        <ele>94.35</ele>
        <time>2011-11-23T18:34:25Z</time>
      </trkpt>
      <trkpt lat="49.01478" lon="1.06053">
        <ele>95.79</ele>
        <time>2011-11-23T18:34:26Z</time>
      </trkpt>
      <trkpt lat="49.01487" lon="1.06091">
        <ele>92.9</ele>
        <time>2011-11-23T18:34:36Z</time>
      </trkpt>
      <trkpt lat="49.01516" lon="1.06157">
        <ele>92.9</ele>
        <time>2011-11-23T18:34:55Z</time>
      </trkpt>
      <trkpt lat="49.01518" lon="1.06161">
        <ele>88.58</ele>
        <time>2011-11-23T18:34:56Z</time>
      </trkpt>
      <trkpt lat="49.01519" lon="1.06164">
        <ele>89.54</ele>
        <time>2011-11-23T18:34:57Z</time>
      </trkpt>
      <trkpt lat="49.01522" lon="1.0617">
        <ele>90.5</ele>
        <time>2011-11-23T18:34:59Z</time>
      </trkpt>
      <trkpt lat="49.01527" lon="1.06178">
        <ele>94.35</ele>
        <time>2011-11-23T18:35:02Z</time>
      </trkpt>
      <trkpt lat="49.01529" lon="1.06181">
        <ele>93.39</ele>
        <time>2011-11-23T18:35:03Z</time>
      </trkpt>
      <trkpt lat="49.01552" lon="1.06207">
        <ele>95.79</ele>
        <time>2011-11-23T18:35:17Z</time>
      </trkpt>
      <trkpt lat="49.01554" lon="1.06208">
        <ele>95.79</ele>
        <time>2011-11-23T18:35:18Z</time>
      </trkpt>
      <trkpt lat="49.01576" lon="1.06222">
        <ele>97.23</ele>
        <time>2011-11-23T18:35:31Z</time>
      </trkpt>
      <trkpt lat="49.01585" lon="1.06227">
        <ele>101.08</ele>
        <time>2011-11-23T18:35:36Z</time>
      </trkpt>
      <trkpt lat="49.01587" lon="1.06228">
        <ele>100.6</ele>
        <time>2011-11-23T18:35:37Z</time>
      </trkpt>
      <trkpt lat="49.01607" lon="1.06229">
        <ele>102.52</ele>
        <time>2011-11-23T18:35:49Z</time>
      </trkpt>
      <trkpt lat="49.01621" lon="1.06214">
        <ele>105.88</ele>
        <time>2011-11-23T18:35:59Z</time>
      </trkpt>
      <trkpt lat="49.01623" lon="1.06212">
        <ele>104.44</ele>
        <time>2011-11-23T18:36:00Z</time>
      </trkpt>
      <trkpt lat="49.01643" lon="1.06175">
        <ele>108.29</ele>
        <time>2011-11-23T18:36:17Z</time>
      </trkpt>
      <trkpt lat="49.01651" lon="1.06163">
        <ele>108.29</ele>
        <time>2011-11-23T18:36:23Z</time>
      </trkpt>
      <trkpt lat="49.0167" lon="1.0615">
        <ele>110.21</ele>
        <time>2011-11-23T18:36:34Z</time>
      </trkpt>
      <trkpt lat="49.01675" lon="1.06147">
        <ele>111.65</ele>
        <time>2011-11-23T18:36:37Z</time>
      </trkpt>
      <trkpt lat="49.01697" lon="1.06135">
        <ele>116.46</ele>
        <time>2011-11-23T18:36:50Z</time>
      </trkpt>
      <trkpt lat="49.01699" lon="1.06135">
        <ele>113.09</ele>
        <time>2011-11-23T18:36:51Z</time>
      </trkpt>
      <trkpt lat="49.01707" lon="1.06133">
        <ele>111.65</ele>
        <time>2011-11-23T18:36:55Z</time>
      </trkpt>
      <trkpt lat="49.01711" lon="1.06132">
        <ele>110.69</ele>
        <time>2011-11-23T18:36:57Z</time>
      </trkpt>
      <trkpt lat="49.0174" lon="1.0613">
        <ele>114.05</ele>
        <time>2011-11-23T18:37:11Z</time>
      </trkpt>
      <trkpt lat="49.01742" lon="1.06129">
        <ele>114.05</ele>
        <time>2011-11-23T18:37:12Z</time>
      </trkpt>
      <trkpt lat="49.01746" lon="1.06128">
        <ele>110.69</ele>
        <time>2011-11-23T18:37:15Z</time>
      </trkpt>
      <trkpt lat="49.01751" lon="1.06128">
        <ele>114.05</ele>
        <time>2011-11-23T18:37:17Z</time>
      </trkpt>
      <trkpt lat="49.01753" lon="1.06127">
        <ele>111.17</ele>
        <time>2011-11-23T18:37:18Z</time>
      </trkpt>
      <trkpt lat="49.01756" lon="1.06127">
        <ele>115.5</ele>
        <time>2011-11-23T18:37:19Z</time>
      </trkpt>
      <trkpt lat="49.01765" lon="1.06125">
        <ele>111.65</ele>
        <time>2011-11-23T18:37:23Z</time>
      </trkpt>
      <trkpt lat="49.01781" lon="1.06123">
        <ele>114.05</ele>
        <time>2011-11-23T18:37:30Z</time>
      </trkpt>
      <trkpt lat="49.01785" lon="1.06122">
        <ele>111.17</ele>
        <time>2011-11-23T18:37:32Z</time>
      </trkpt>
      <trkpt lat="49.01787" lon="1.06122">
        <ele>114.05</ele>
        <time>2011-11-23T18:37:33Z</time>
      </trkpt>
      <trkpt lat="49.01789" lon="1.06121">
        <ele>114.05</ele>
        <time>2011-11-23T18:37:34Z</time>
      </trkpt>
      <trkpt lat="49.01806" lon="1.06124">
        <ele>112.61</ele>
        <time>2011-11-23T18:37:42Z</time>
      </trkpt>
      <trkpt lat="49.01816" lon="1.06144">
        <ele>115.5</ele>
        <time>2011-11-23T18:37:49Z</time>
      </trkpt>
      <trkpt lat="49.01817" lon="1.06147">
        <ele>111.65</ele>
        <time>2011-11-23T18:37:50Z</time>
      </trkpt>
      <trkpt lat="49.01823" lon="1.06177">
        <ele>113.09</ele>
        <time>2011-11-23T18:37:58Z</time>
      </trkpt>
      <trkpt lat="49.01835" lon="1.06219">
        <ele>110.69</ele>
        <time>2011-11-23T18:38:11Z</time>
      </trkpt>
      <trkpt lat="49.01836" lon="1.06225">
        <ele>114.05</ele>
        <time>2011-11-23T18:38:13Z</time>
      </trkpt>
      <trkpt lat="49.0184" lon="1.06258">
        <ele>113.09</ele>
        <time>2011-11-23T18:38:23Z</time>
      </trkpt>
      <trkpt lat="49.01843" lon="1.06288">
        <ele>111.17</ele>
        <time>2011-11-23T18:38:32Z</time>
      </trkpt>
      <trkpt lat="49.01844" lon="1.06308">
        <ele>115.01</ele>
        <time>2011-11-23T18:38:38Z</time>
      </trkpt>
      <trkpt lat="49.01845" lon="1.06322">
        <ele>111.17</ele>
        <time>2011-11-23T18:38:42Z</time>
      </trkpt>
      <trkpt lat="49.01846" lon="1.06325">
        <ele>111.65</ele>
        <time>2011-11-23T18:38:43Z</time>
      </trkpt>
      <trkpt lat="49.0185" lon="1.06368">
        <ele>115.01</ele>
        <time>2011-11-23T18:38:56Z</time>
      </trkpt>
      <trkpt lat="49.01851" lon="1.06372">
        <ele>113.09</ele>
        <time>2011-11-23T18:38:57Z</time>
      </trkpt>
      <trkpt lat="49.01854" lon="1.06396">
        <ele>113.57</ele>
        <time>2011-11-23T18:39:04Z</time>
      </trkpt>
      <trkpt lat="49.01855" lon="1.06403">
        <ele>110.21</ele>
        <time>2011-11-23T18:39:06Z</time>
      </trkpt>
      <trkpt lat="49.01855" lon="1.06407">
        <ele>114.05</ele>
        <time>2011-11-23T18:39:07Z</time>
      </trkpt>
      <trkpt lat="49.01856" lon="1.06411">
        <ele>110.21</ele>
        <time>2011-11-23T18:39:08Z</time>
      </trkpt>
      <trkpt lat="49.01857" lon="1.06418">
        <ele>113.57</ele>
        <time>2011-11-23T18:39:10Z</time>
      </trkpt>
      <trkpt lat="49.01857" lon="1.06421">
        <ele>111.65</ele>
        <time>2011-11-23T18:39:11Z</time>
      </trkpt>
      <trkpt lat="49.01859" lon="1.06432">
        <ele>113.57</ele>
        <time>2011-11-23T18:39:14Z</time>
      </trkpt>
      <trkpt lat="49.0186" lon="1.06442">
        <ele>110.21</ele>
        <time>2011-11-23T18:39:17Z</time>
      </trkpt>
      <trkpt lat="49.01862" lon="1.06461">
        <ele>113.57</ele>
        <time>2011-11-23T18:39:22Z</time>
      </trkpt>
      <trkpt lat="49.01862" lon="1.06464">
        <ele>113.57</ele>
        <time>2011-11-23T18:39:23Z</time>
      </trkpt>
      <trkpt lat="49.01863" lon="1.06491">
        <ele>110.21</ele>
        <time>2011-11-23T18:39:30Z</time>
      </trkpt>
      <trkpt lat="49.01863" lon="1.0654">
        <ele>111.17</ele>
        <time>2011-11-23T18:39:44Z</time>
      </trkpt>
      <trkpt lat="49.01863" lon="1.06564">
        <ele>109.25</ele>
        <time>2011-11-23T18:39:51Z</time>
      </trkpt>
      <trkpt lat="49.01863" lon="1.06581">
        <ele>112.13</ele>
        <time>2011-11-23T18:39:56Z</time>
      </trkpt>
      <trkpt lat="49.01864" lon="1.06625">
        <ele>109.25</ele>
        <time>2011-11-23T18:40:08Z</time>
      </trkpt>
      <trkpt lat="49.01864" lon="1.06662">
        <ele>109.25</ele>
        <time>2011-11-23T18:40:18Z</time>
      </trkpt>
      <trkpt lat="49.01866" lon="1.06699">
        <ele>109.73</ele>
        <time>2011-11-23T18:40:28Z</time>
      </trkpt>
      <trkpt lat="49.01866" lon="1.06755">
        <ele>108.77</ele>
        <time>2011-11-23T18:40:43Z</time>
      </trkpt>
      <trkpt lat="49.01868" lon="1.06783">
        <ele>106.84</ele>
        <time>2011-11-23T18:40:50Z</time>
      </trkpt>
      <trkpt lat="49.0187" lon="1.06832">
        <ele>106.36</ele>
        <time>2011-11-23T18:41:03Z</time>
      </trkpt>
      <trkpt lat="49.0187" lon="1.06851">
        <ele>110.69</ele>
        <time>2011-11-23T18:41:08Z</time>
      </trkpt>
      <trkpt lat="49.01869" lon="1.06854">
        <ele>107.32</ele>
        <time>2011-11-23T18:41:09Z</time>
      </trkpt>
      <trkpt lat="49.0187" lon="1.06903">
        <ele>103</ele>
        <time>2011-11-23T18:41:22Z</time>
      </trkpt>
      <trkpt lat="49.0187" lon="1.06926">
        <ele>103.48</ele>
        <time>2011-11-23T18:41:28Z</time>
      </trkpt>
      <trkpt lat="49.01871" lon="1.06982">
        <ele>102.52</ele>
        <time>2011-11-23T18:41:43Z</time>
      </trkpt>
      <trkpt lat="49.01871" lon="1.06986">
        <ele>105.88</ele>
        <time>2011-11-23T18:41:44Z</time>
      </trkpt>
      <trkpt lat="49.01871" lon="1.0699">
        <ele>100.6</ele>
        <time>2011-11-23T18:41:45Z</time>
      </trkpt>
      <trkpt lat="49.0187" lon="1.06994">
        <ele>100.6</ele>
        <time>2011-11-23T18:41:46Z</time>
      </trkpt>
      <trkpt lat="49.0187" lon="1.06997">
        <ele>104.44</ele>
        <time>2011-11-23T18:41:47Z</time>
      </trkpt>
      <trkpt lat="49.0187" lon="1.07001">
        <ele>104.44</ele>
        <time>2011-11-23T18:41:48Z</time>
      </trkpt>
      <trkpt lat="49.01869" lon="1.07004">
        <ele>97.71</ele>
        <time>2011-11-23T18:41:49Z</time>
      </trkpt>
      <trkpt lat="49.01869" lon="1.07008">
        <ele>100.11</ele>
        <time>2011-11-23T18:41:50Z</time>
      </trkpt>
      <trkpt lat="49.01867" lon="1.07023">
        <ele>102.52</ele>
        <time>2011-11-23T18:41:54Z</time>
      </trkpt>
      <trkpt lat="49.01864" lon="1.07061">
        <ele>102.52</ele>
        <time>2011-11-23T18:42:04Z</time>
      </trkpt>
      <trkpt lat="49.01864" lon="1.07065">
        <ele>99.15</ele>
        <time>2011-11-23T18:42:05Z</time>
      </trkpt>
      <trkpt lat="49.01863" lon="1.07068">
        <ele>100.11</ele>
        <time>2011-11-23T18:42:06Z</time>
      </trkpt>
      <trkpt lat="49.01862" lon="1.07084">
        <ele>96.27</ele>
        <time>2011-11-23T18:42:10Z</time>
      </trkpt>
      <trkpt lat="49.01861" lon="1.071">
        <ele>100.6</ele>
        <time>2011-11-23T18:42:14Z</time>
      </trkpt>
      <trkpt lat="49.0186" lon="1.07112">
        <ele>97.71</ele>
        <time>2011-11-23T18:42:17Z</time>
      </trkpt>
      <trkpt lat="49.0186" lon="1.07119">
        <ele>96.75</ele>
        <time>2011-11-23T18:42:19Z</time>
      </trkpt>
      <trkpt lat="49.01861" lon="1.07155">
        <ele>98.19</ele>
        <time>2011-11-23T18:42:28Z</time>
      </trkpt>
      <trkpt lat="49.01861" lon="1.07163">
        <ele>95.31</ele>
        <time>2011-11-23T18:42:30Z</time>
      </trkpt>
      <trkpt lat="49.01863" lon="1.07217">
        <ele>90.98</ele>
        <time>2011-11-23T18:42:44Z</time>
      </trkpt>
      <trkpt lat="49.01863" lon="1.07237">
        <ele>93.87</ele>
        <time>2011-11-23T18:42:49Z</time>
      </trkpt>
      <trkpt lat="49.01863" lon="1.07244">
        <ele>89.54</ele>
        <time>2011-11-23T18:42:51Z</time>
      </trkpt>
      <trkpt lat="49.01863" lon="1.07248">
        <ele>93.39</ele>
        <time>2011-11-23T18:42:52Z</time>
      </trkpt>
      <trkpt lat="49.01863" lon="1.07252">
        <ele>89.54</ele>
        <time>2011-11-23T18:42:53Z</time>
      </trkpt>
      <trkpt lat="49.01863" lon="1.07256">
        <ele>92.9</ele>
        <time>2011-11-23T18:42:54Z</time>
      </trkpt>
      <trkpt lat="49.01863" lon="1.07271">
        <ele>89.54</ele>
        <time>2011-11-23T18:42:58Z</time>
      </trkpt>
      <trkpt lat="49.01863" lon="1.07275">
        <ele>89.54</ele>
        <time>2011-11-23T18:42:59Z</time>
      </trkpt>
      <trkpt lat="49.01862" lon="1.07282">
        <ele>92.9</ele>
        <time>2011-11-23T18:43:01Z</time>
      </trkpt>
      <trkpt lat="49.01862" lon="1.07286">
        <ele>91.46</ele>
        <time>2011-11-23T18:43:02Z</time>
      </trkpt>
      <trkpt lat="49.01863" lon="1.07297">
        <ele>88.1</ele>
        <time>2011-11-23T18:43:05Z</time>
      </trkpt>
      <trkpt lat="49.01864" lon="1.07328">
        <ele>87.62</ele>
        <time>2011-11-23T18:43:13Z</time>
      </trkpt>
      <trkpt lat="49.01868" lon="1.07378">
        <ele>88.58</ele>
        <time>2011-11-23T18:43:26Z</time>
      </trkpt>
      <trkpt lat="49.01869" lon="1.07396">
        <ele>84.73</ele>
        <time>2011-11-23T18:43:31Z</time>
      </trkpt>
      <trkpt lat="49.01871" lon="1.07407">
        <ele>90.02</ele>
        <time>2011-11-23T18:43:34Z</time>
      </trkpt>
      <trkpt lat="49.01873" lon="1.07418">
        <ele>87.14</ele>
        <time>2011-11-23T18:43:37Z</time>
      </trkpt>
      <trkpt lat="49.01876" lon="1.07431">
        <ele>90.5</ele>
        <time>2011-11-23T18:43:41Z</time>
      </trkpt>
      <trkpt lat="49.01878" lon="1.07434">
        <ele>87.14</ele>
        <time>2011-11-23T18:43:42Z</time>
      </trkpt>
      <trkpt lat="49.01879" lon="1.07438">
        <ele>87.14</ele>
        <time>2011-11-23T18:43:43Z</time>
      </trkpt>
      <trkpt lat="49.01899" lon="1.07478">
        <ele>85.21</ele>
        <time>2011-11-23T18:43:57Z</time>
      </trkpt>
      <trkpt lat="49.01916" lon="1.07512">
        <ele>84.73</ele>
        <time>2011-11-23T18:44:08Z</time>
      </trkpt>
      <trkpt lat="49.01919" lon="1.07518">
        <ele>83.77</ele>
        <time>2011-11-23T18:44:10Z</time>
      </trkpt>
      <trkpt lat="49.01942" lon="1.07561">
        <ele>84.73</ele>
        <time>2011-11-23T18:44:24Z</time>
      </trkpt>
      <trkpt lat="49.01952" lon="1.07582">
        <ele>84.73</ele>
        <time>2011-11-23T18:44:31Z</time>
      </trkpt>
      <trkpt lat="49.01978" lon="1.07634">
        <ele>84.25</ele>
        <time>2011-11-23T18:44:48Z</time>
      </trkpt>
      <trkpt lat="49.01991" lon="1.07657">
        <ele>83.77</ele>
        <time>2011-11-23T18:44:55Z</time>
      </trkpt>
      <trkpt lat="49.02" lon="1.07676">
        <ele>84.73</ele>
        <time>2011-11-23T18:45:01Z</time>
      </trkpt>
      <trkpt lat="49.0201" lon="1.07698">
        <ele>79.93</ele>
        <time>2011-11-23T18:45:08Z</time>
      </trkpt>
      <trkpt lat="49.02012" lon="1.07701">
        <ele>84.73</ele>
        <time>2011-11-23T18:45:09Z</time>
      </trkpt>
      <trkpt lat="49.0202" lon="1.07717">
        <ele>82.33</ele>
        <time>2011-11-23T18:45:14Z</time>
      </trkpt>
      <trkpt lat="49.02023" lon="1.07723">
        <ele>86.18</ele>
        <time>2011-11-23T18:45:16Z</time>
      </trkpt>
      <trkpt lat="49.02025" lon="1.07726">
        <ele>84.25</ele>
        <time>2011-11-23T18:45:17Z</time>
      </trkpt>
      <trkpt lat="49.0203" lon="1.07739">
        <ele>83.29</ele>
        <time>2011-11-23T18:45:21Z</time>
      </trkpt>
      <trkpt lat="49.02035" lon="1.07757">
        <ele>84.73</ele>
        <time>2011-11-23T18:45:26Z</time>
      </trkpt>
      <trkpt lat="49.02036" lon="1.0776">
        <ele>85.21</ele>
        <time>2011-11-23T18:45:27Z</time>
      </trkpt>
      <trkpt lat="49.02038" lon="1.07768">
        <ele>82.81</ele>
        <time>2011-11-23T18:45:29Z</time>
      </trkpt>
      <trkpt lat="49.02039" lon="1.07779">
        <ele>85.21</ele>
        <time>2011-11-23T18:45:32Z</time>
      </trkpt>
      <trkpt lat="49.02035" lon="1.07801">
        <ele>85.69</ele>
        <time>2011-11-23T18:45:40Z</time>
      </trkpt>
      <trkpt lat="49.02023" lon="1.07822">
        <ele>87.14</ele>
        <time>2011-11-23T18:45:51Z</time>
      </trkpt>
      <trkpt lat="49.0202" lon="1.07824">
        <ele>88.1</ele>
        <time>2011-11-23T18:45:53Z</time>
      </trkpt>
      <trkpt lat="49.02005" lon="1.0783">
        <ele>91.94</ele>
        <time>2011-11-23T18:46:00Z</time>
      </trkpt>
      <trkpt lat="49.02003" lon="1.0783">
        <ele>90.5</ele>
        <time>2011-11-23T18:46:01Z</time>
      </trkpt>
      <trkpt lat="49.01981" lon="1.07833">
        <ele>92.42</ele>
        <time>2011-11-23T18:46:13Z</time>
      </trkpt>
      <trkpt lat="49.01976" lon="1.07835">
        <ele>90.02</ele>
        <time>2011-11-23T18:46:16Z</time>
      </trkpt>
      <trkpt lat="49.01975" lon="1.07835">
        <ele>93.39</ele>
        <time>2011-11-23T18:46:17Z</time>
      </trkpt>
      <trkpt lat="49.01973" lon="1.07835">
        <ele>91.46</ele>
        <time>2011-11-23T18:46:18Z</time>
      </trkpt>
      <trkpt lat="49.0197" lon="1.07834">
        <ele>90.5</ele>
        <time>2011-11-23T18:46:20Z</time>
      </trkpt>
      <trkpt lat="49.01966" lon="1.07832">
        <ele>90.98</ele>
        <time>2011-11-23T18:46:23Z</time>
      </trkpt>
      <trkpt lat="49.01963" lon="1.0783">
        <ele>95.31</ele>
        <time>2011-11-23T18:46:25Z</time>
      </trkpt>
      <trkpt lat="49.01961" lon="1.07829">
        <ele>93.87</ele>
        <time>2011-11-23T18:46:26Z</time>
      </trkpt>
      <trkpt lat="49.01958" lon="1.07828">
        <ele>93.39</ele>
        <time>2011-11-23T18:46:28Z</time>
      </trkpt>
      <trkpt lat="49.01952" lon="1.07828">
        <ele>94.83</ele>
        <time>2011-11-23T18:46:31Z</time>
      </trkpt>
      <trkpt lat="49.01939" lon="1.07828">
        <ele>92.9</ele>
        <time>2011-11-23T18:46:42Z</time>
      </trkpt>
      <trkpt lat="49.01938" lon="1.07829">
        <ele>93.39</ele>
        <time>2011-11-23T18:46:43Z</time>
      </trkpt>
      <trkpt lat="49.01935" lon="1.07829">
        <ele>94.83</ele>
        <time>2011-11-23T18:46:45Z</time>
      </trkpt>
      <trkpt lat="49.01933" lon="1.07829">
        <ele>98.67</ele>
        <time>2011-11-23T18:46:46Z</time>
      </trkpt>
      <trkpt lat="49.01932" lon="1.07829">
        <ele>97.23</ele>
        <time>2011-11-23T18:46:47Z</time>
      </trkpt>
      <trkpt lat="49.01914" lon="1.07831">
        <ele>94.35</ele>
        <time>2011-11-23T18:46:55Z</time>
      </trkpt>
      <trkpt lat="49.01911" lon="1.07832">
        <ele>94.83</ele>
        <time>2011-11-23T18:46:56Z</time>
      </trkpt>
      <trkpt lat="49.01906" lon="1.07833">
        <ele>96.27</ele>
        <time>2011-11-23T18:46:58Z</time>
      </trkpt>
      <trkpt lat="49.01902" lon="1.07834">
        <ele>102.52</ele>
        <time>2011-11-23T18:47:00Z</time>
      </trkpt>
      <trkpt lat="49.019" lon="1.07834">
        <ele>98.19</ele>
        <time>2011-11-23T18:47:01Z</time>
      </trkpt>
      <trkpt lat="49.01895" lon="1.07836">
        <ele>102.04</ele>
        <time>2011-11-23T18:47:05Z</time>
      </trkpt>
      <trkpt lat="49.01894" lon="1.07837">
        <ele>100.6</ele>
        <time>2011-11-23T18:47:06Z</time>
      </trkpt>
      <trkpt lat="49.01876" lon="1.07843">
        <ele>102.04</ele>
        <time>2011-11-23T18:47:17Z</time>
      </trkpt>
      <trkpt lat="49.01875" lon="1.07843">
        <ele>104.92</ele>
        <time>2011-11-23T18:47:18Z</time>
      </trkpt>
      <trkpt lat="49.0187" lon="1.07844">
        <ele>105.88</ele>
        <time>2011-11-23T18:47:22Z</time>
      </trkpt>
      <trkpt lat="49.01869" lon="1.07845">
        <ele>104.92</ele>
        <time>2011-11-23T18:47:23Z</time>
      </trkpt>
      <trkpt lat="49.01867" lon="1.07845">
        <ele>103</ele>
        <time>2011-11-23T18:47:26Z</time>
      </trkpt>
      <trkpt lat="49.01863" lon="1.07845">
        <ele>104.44</ele>
        <time>2011-11-23T18:47:29Z</time>
      </trkpt>
      <trkpt lat="49.01852" lon="1.07847">
        <ele>107.81</ele>
        <time>2011-11-23T18:47:35Z</time>
      </trkpt>
      <trkpt lat="49.0185" lon="1.07847">
        <ele>107.81</ele>
        <time>2011-11-23T18:47:36Z</time>
      </trkpt>
      <trkpt lat="49.01847" lon="1.07849">
        <ele>103.96</ele>
        <time>2011-11-23T18:47:38Z</time>
      </trkpt>
      <trkpt lat="49.01846" lon="1.0785">
        <ele>108.29</ele>
        <time>2011-11-23T18:47:39Z</time>
      </trkpt>
      <trkpt lat="49.01827" lon="1.07856">
        <ele>110.21</ele>
        <time>2011-11-23T18:47:52Z</time>
      </trkpt>
      <trkpt lat="49.01821" lon="1.07858">
        <ele>107.81</ele>
        <time>2011-11-23T18:47:56Z</time>
      </trkpt>
      <trkpt lat="49.01818" lon="1.0786">
        <ele>111.17</ele>
        <time>2011-11-23T18:47:59Z</time>
      </trkpt>
      <trkpt lat="49.01814" lon="1.07863">
        <ele>110.69</ele>
        <time>2011-11-23T18:48:03Z</time>
      </trkpt>
      <trkpt lat="49.01812" lon="1.07864">
        <ele>107.81</ele>
        <time>2011-11-23T18:48:05Z</time>
      </trkpt>
      <trkpt lat="49.01811" lon="1.07865">
        <ele>111.65</ele>
        <time>2011-11-23T18:48:06Z</time>
      </trkpt>
      <trkpt lat="49.01807" lon="1.07865">
        <ele>110.69</ele>
        <time>2011-11-23T18:48:09Z</time>
      </trkpt>
      <trkpt lat="49.01803" lon="1.07865">
        <ele>111.65</ele>
        <time>2011-11-23T18:48:11Z</time>
      </trkpt>
      <trkpt lat="49.01783" lon="1.07869">
        <ele>112.61</ele>
        <time>2011-11-23T18:48:22Z</time>
      </trkpt>
      <trkpt lat="49.01776" lon="1.07872">
        <ele>108.77</ele>
        <time>2011-11-23T18:48:26Z</time>
      </trkpt>
      <trkpt lat="49.01774" lon="1.07873">
        <ele>114.53</ele>
        <time>2011-11-23T18:48:27Z</time>
      </trkpt>
      <trkpt lat="49.01773" lon="1.07873">
        <ele>112.61</ele>
        <time>2011-11-23T18:48:28Z</time>
      </trkpt>
      <trkpt lat="49.0177" lon="1.07872">
        <ele>110.69</ele>
        <time>2011-11-23T18:48:30Z</time>
      </trkpt>
      <trkpt lat="49.01767" lon="1.07871">
        <ele>114.53</ele>
        <time>2011-11-23T18:48:32Z</time>
      </trkpt>
      <trkpt lat="49.01765" lon="1.07871">
        <ele>110.21</ele>
        <time>2011-11-23T18:48:33Z</time>
      </trkpt>
      <trkpt lat="49.01764" lon="1.07871">
        <ele>114.53</ele>
        <time>2011-11-23T18:48:34Z</time>
      </trkpt>
      <trkpt lat="49.01747" lon="1.07874">
        <ele>113.57</ele>
        <time>2011-11-23T18:48:44Z</time>
      </trkpt>
      <trkpt lat="49.0174" lon="1.07874">
        <ele>115.5</ele>
        <time>2011-11-23T18:48:48Z</time>
      </trkpt>
      <trkpt lat="49.01729" lon="1.07876">
        <ele>117.42</ele>
        <time>2011-11-23T18:48:55Z</time>
      </trkpt>
      <trkpt lat="49.0172" lon="1.07877">
        <ele>115.01</ele>
        <time>2011-11-23T18:49:00Z</time>
      </trkpt>
      <trkpt lat="49.01708" lon="1.07877">
        <ele>117.9</ele>
        <time>2011-11-23T18:49:06Z</time>
      </trkpt>
      <trkpt lat="49.01683" lon="1.07875">
        <ele>121.26</ele>
        <time>2011-11-23T18:49:18Z</time>
      </trkpt>
      <trkpt lat="49.01681" lon="1.07875">
        <ele>117.9</ele>
        <time>2011-11-23T18:49:19Z</time>
      </trkpt>
      <trkpt lat="49.01672" lon="1.07874">
        <ele>122.71</ele>
        <time>2011-11-23T18:49:23Z</time>
      </trkpt>
      <trkpt lat="49.01668" lon="1.07875">
        <ele>115.98</ele>
        <time>2011-11-23T18:49:25Z</time>
      </trkpt>
      <trkpt lat="49.01666" lon="1.07875">
        <ele>118.86</ele>
        <time>2011-11-23T18:49:26Z</time>
      </trkpt>
      <trkpt lat="49.01652" lon="1.07875">
        <ele>122.71</ele>
        <time>2011-11-23T18:49:33Z</time>
      </trkpt>
      <trkpt lat="49.01646" lon="1.07876">
        <ele>118.86</ele>
        <time>2011-11-23T18:49:36Z</time>
      </trkpt>
      <trkpt lat="49.01645" lon="1.07876">
        <ele>118.86</ele>
        <time>2011-11-23T18:49:37Z</time>
      </trkpt>
      <trkpt lat="49.01641" lon="1.07876">
        <ele>120.3</ele>
        <time>2011-11-23T18:49:39Z</time>
      </trkpt>
      <trkpt lat="49.01624" lon="1.07878">
        <ele>121.74</ele>
        <time>2011-11-23T18:49:49Z</time>
      </trkpt>
      <trkpt lat="49.01607" lon="1.07886">
        <ele>122.71</ele>
        <time>2011-11-23T18:49:58Z</time>
      </trkpt>
      <trkpt lat="49.0159" lon="1.07893">
        <ele>123.19</ele>
        <time>2011-11-23T18:50:08Z</time>
      </trkpt>
      <trkpt lat="49.01582" lon="1.07898">
        <ele>120.3</ele>
        <time>2011-11-23T18:50:13Z</time>
      </trkpt>
      <trkpt lat="49.0158" lon="1.07899">
        <ele>124.15</ele>
        <time>2011-11-23T18:50:14Z</time>
      </trkpt>
      <trkpt lat="49.01576" lon="1.07902">
        <ele>120.78</ele>
        <time>2011-11-23T18:50:16Z</time>
      </trkpt>
      <trkpt lat="49.01574" lon="1.07903">
        <ele>124.15</ele>
        <time>2011-11-23T18:50:17Z</time>
      </trkpt>
      <trkpt lat="49.01573" lon="1.07905">
        <ele>123.19</ele>
        <time>2011-11-23T18:50:18Z</time>
      </trkpt>
      <trkpt lat="49.0157" lon="1.07909">
        <ele>122.71</ele>
        <time>2011-11-23T18:50:20Z</time>
      </trkpt>
      <trkpt lat="49.01563" lon="1.07939">
        <ele>123.67</ele>
        <time>2011-11-23T18:50:32Z</time>
      </trkpt>
      <trkpt lat="49.01545" lon="1.07968">
        <ele>123.19</ele>
        <time>2011-11-23T18:50:46Z</time>
      </trkpt>
      <trkpt lat="49.01539" lon="1.07971">
        <ele>125.11</ele>
        <time>2011-11-23T18:50:49Z</time>
      </trkpt>
      <trkpt lat="49.01531" lon="1.07976">
        <ele>123.67</ele>
        <time>2011-11-23T18:50:54Z</time>
      </trkpt>
      <trkpt lat="49.01526" lon="1.07979">
        <ele>124.15</ele>
        <time>2011-11-23T18:50:56Z</time>
      </trkpt>
      <trkpt lat="49.01518" lon="1.07984">
        <ele>124.63</ele>
        <time>2011-11-23T18:51:00Z</time>
      </trkpt>
      <trkpt lat="49.01513" lon="1.07987">
        <ele>123.19</ele>
        <time>2011-11-23T18:51:03Z</time>
      </trkpt>
      <trkpt lat="49.01499" lon="1.07993">
        <ele>127.99</ele>
        <time>2011-11-23T18:51:09Z</time>
      </trkpt>
      <trkpt lat="49.01488" lon="1.07997">
        <ele>123.67</ele>
        <time>2011-11-23T18:51:13Z</time>
      </trkpt>
      <trkpt lat="49.01485" lon="1.07998">
        <ele>124.15</ele>
        <time>2011-11-23T18:51:14Z</time>
      </trkpt>
      <trkpt lat="49.01472" lon="1.08005">
        <ele>127.99</ele>
        <time>2011-11-23T18:51:20Z</time>
      </trkpt>
      <trkpt lat="49.01468" lon="1.08008">
        <ele>125.59</ele>
        <time>2011-11-23T18:51:22Z</time>
      </trkpt>
      <trkpt lat="49.0144" lon="1.08027">
        <ele>124.15</ele>
        <time>2011-11-23T18:51:36Z</time>
      </trkpt>
      <trkpt lat="49.01436" lon="1.0803">
        <ele>126.07</ele>
        <time>2011-11-23T18:51:38Z</time>
      </trkpt>
      <trkpt lat="49.01418" lon="1.0804">
        <ele>125.59</ele>
        <time>2011-11-23T18:51:47Z</time>
      </trkpt>
      <trkpt lat="49.01401" lon="1.08053">
        <ele>125.59</ele>
        <time>2011-11-23T18:51:56Z</time>
      </trkpt>
      <trkpt lat="49.01398" lon="1.08057">
        <ele>128.47</ele>
        <time>2011-11-23T18:51:58Z</time>
      </trkpt>
      <trkpt lat="49.01397" lon="1.08061">
        <ele>125.11</ele>
        <time>2011-11-23T18:51:59Z</time>
      </trkpt>
      <trkpt lat="49.01397" lon="1.08064">
        <ele>126.07</ele>
        <time>2011-11-23T18:52:00Z</time>
      </trkpt>
      <trkpt lat="49.01402" lon="1.0808">
        <ele>125.59</ele>
        <time>2011-11-23T18:52:04Z</time>
      </trkpt>
      <trkpt lat="49.01411" lon="1.08115">
        <ele>123.19</ele>
        <time>2011-11-23T18:52:14Z</time>
      </trkpt>
      <trkpt lat="49.01418" lon="1.08152">
        <ele>122.71</ele>
        <time>2011-11-23T18:52:25Z</time>
      </trkpt>
      <trkpt lat="49.01419" lon="1.08158">
        <ele>125.11</ele>
        <time>2011-11-23T18:52:27Z</time>
      </trkpt>
      <trkpt lat="49.01421" lon="1.08166">
        <ele>124.15</ele>
        <time>2011-11-23T18:52:29Z</time>
      </trkpt>
      <trkpt lat="49.01424" lon="1.08188">
        <ele>125.11</ele>
        <time>2011-11-23T18:52:35Z</time>
      </trkpt>
      <trkpt lat="49.01425" lon="1.08191">
        <ele>121.74</ele>
        <time>2011-11-23T18:52:36Z</time>
      </trkpt>
      <trkpt lat="49.01437" lon="1.08239">
        <ele>121.74</ele>
        <time>2011-11-23T18:52:50Z</time>
      </trkpt>
      <trkpt lat="49.01442" lon="1.08267">
        <ele>122.22</ele>
        <time>2011-11-23T18:52:58Z</time>
      </trkpt>
      <trkpt lat="49.01444" lon="1.08278">
        <ele>124.15</ele>
        <time>2011-11-23T18:53:01Z</time>
      </trkpt>
      <trkpt lat="49.01444" lon="1.08281">
        <ele>120.78</ele>
        <time>2011-11-23T18:53:02Z</time>
      </trkpt>
      <trkpt lat="49.01445" lon="1.08285">
        <ele>120.78</ele>
        <time>2011-11-23T18:53:03Z</time>
      </trkpt>
      <trkpt lat="49.01446" lon="1.08288">
        <ele>125.59</ele>
        <time>2011-11-23T18:53:04Z</time>
      </trkpt>
      <trkpt lat="49.01446" lon="1.08292">
        <ele>120.3</ele>
        <time>2011-11-23T18:53:05Z</time>
      </trkpt>
      <trkpt lat="49.0145" lon="1.08309">
        <ele>124.15</ele>
        <time>2011-11-23T18:53:10Z</time>
      </trkpt>
      <trkpt lat="49.01452" lon="1.0832">
        <ele>120.78</ele>
        <time>2011-11-23T18:53:13Z</time>
      </trkpt>
      <trkpt lat="49.01456" lon="1.08337">
        <ele>121.26</ele>
        <time>2011-11-23T18:53:18Z</time>
      </trkpt>
      <trkpt lat="49.01466" lon="1.0839">
        <ele>120.3</ele>
        <time>2011-11-23T18:53:34Z</time>
      </trkpt>
      <trkpt lat="49.01456" lon="1.08412">
        <ele>120.3</ele>
        <time>2011-11-23T18:53:43Z</time>
      </trkpt>
      <trkpt lat="49.01456" lon="1.08416">
        <ele>121.74</ele>
        <time>2011-11-23T18:53:44Z</time>
      </trkpt>
      <trkpt lat="49.01465" lon="1.08443">
        <ele>121.74</ele>
        <time>2011-11-23T18:53:52Z</time>
      </trkpt>
      <trkpt lat="49.01477" lon="1.08462">
        <ele>120.78</ele>
        <time>2011-11-23T18:54:00Z</time>
      </trkpt>
      <trkpt lat="49.01487" lon="1.08505">
        <ele>119.82</ele>
        <time>2011-11-23T18:54:13Z</time>
      </trkpt>
      <trkpt lat="49.01496" lon="1.08553">
        <ele>120.3</ele>
        <time>2011-11-23T18:54:27Z</time>
      </trkpt>
      <trkpt lat="49.01498" lon="1.0856">
        <ele>117.9</ele>
        <time>2011-11-23T18:54:29Z</time>
      </trkpt>
      <trkpt lat="49.01499" lon="1.08567">
        <ele>119.34</ele>
        <time>2011-11-23T18:54:31Z</time>
      </trkpt>
      <trkpt lat="49.01507" lon="1.0861">
        <ele>118.38</ele>
        <time>2011-11-23T18:54:44Z</time>
      </trkpt>
      <trkpt lat="49.0152" lon="1.08665">
        <ele>116.94</ele>
        <time>2011-11-23T18:54:59Z</time>
      </trkpt>
      <trkpt lat="49.0152" lon="1.08668">
        <ele>118.38</ele>
        <time>2011-11-23T18:55:00Z</time>
      </trkpt>
      <trkpt lat="49.01527" lon="1.08702">
        <ele>119.82</ele>
        <time>2011-11-23T18:55:10Z</time>
      </trkpt>
      <trkpt lat="49.01532" lon="1.08716">
        <ele>118.86</ele>
        <time>2011-11-23T18:55:14Z</time>
      </trkpt>
      <trkpt lat="49.01537" lon="1.0874">
        <ele>120.3</ele>
        <time>2011-11-23T18:55:21Z</time>
      </trkpt>
      <trkpt lat="49.01542" lon="1.08757">
        <ele>116.46</ele>
        <time>2011-11-23T18:55:26Z</time>
      </trkpt>
      <trkpt lat="49.01543" lon="1.0876">
        <ele>120.78</ele>
        <time>2011-11-23T18:55:27Z</time>
      </trkpt>
      <trkpt lat="49.01546" lon="1.0877">
        <ele>118.38</ele>
        <time>2011-11-23T18:55:30Z</time>
      </trkpt>
      <trkpt lat="49.01548" lon="1.08782">
        <ele>120.3</ele>
        <time>2011-11-23T18:55:34Z</time>
      </trkpt>
      <trkpt lat="49.0155" lon="1.08791">
        <ele>120.78</ele>
        <time>2011-11-23T18:55:37Z</time>
      </trkpt>
      <trkpt lat="49.01545" lon="1.08802">
        <ele>117.42</ele>
        <time>2011-11-23T18:55:41Z</time>
      </trkpt>
      <trkpt lat="49.01537" lon="1.08804">
        <ele>120.3</ele>
        <time>2011-11-23T18:55:44Z</time>
      </trkpt>
      <trkpt lat="49.01534" lon="1.08804">
        <ele>119.34</ele>
        <time>2011-11-23T18:55:45Z</time>
      </trkpt>
      <trkpt lat="49.01508" lon="1.08811">
        <ele>115.5</ele>
        <time>2011-11-23T18:55:56Z</time>
      </trkpt>
      <trkpt lat="49.01505" lon="1.08811">
        <ele>118.38</ele>
        <time>2011-11-23T18:55:57Z</time>
      </trkpt>
      <trkpt lat="49.01493" lon="1.08813">
        <ele>121.74</ele>
        <time>2011-11-23T18:56:02Z</time>
      </trkpt>
      <trkpt lat="49.01491" lon="1.08813">
        <ele>121.74</ele>
        <time>2011-11-23T18:56:03Z</time>
      </trkpt>
      <trkpt lat="49.01486" lon="1.08813">
        <ele>117.42</ele>
        <time>2011-11-23T18:56:05Z</time>
      </trkpt>
      <trkpt lat="49.01456" lon="1.08818">
        <ele>117.42</ele>
        <time>2011-11-23T18:56:18Z</time>
      </trkpt>
      <trkpt lat="49.01448" lon="1.08818">
        <ele>117.42</ele>
        <time>2011-11-23T18:56:22Z</time>
      </trkpt>
      <trkpt lat="49.0144" lon="1.08818">
        <ele>116.46</ele>
        <time>2011-11-23T18:56:26Z</time>
      </trkpt>
      <trkpt lat="49.01411" lon="1.08808">
        <ele>119.82</ele>
        <time>2011-11-23T18:56:38Z</time>
      </trkpt>
      <trkpt lat="49.01401" lon="1.08807">
        <ele>118.86</ele>
        <time>2011-11-23T18:56:42Z</time>
      </trkpt>
      <trkpt lat="49.01399" lon="1.08806">
        <ele>115.5</ele>
        <time>2011-11-23T18:56:43Z</time>
      </trkpt>
      <trkpt lat="49.01384" lon="1.08804">
        <ele>119.34</ele>
        <time>2011-11-23T18:56:49Z</time>
      </trkpt>
      <trkpt lat="49.01367" lon="1.08802">
        <ele>115.98</ele>
        <time>2011-11-23T18:56:56Z</time>
      </trkpt>
      <trkpt lat="49.01336" lon="1.08803">
        <ele>115.5</ele>
        <time>2011-11-23T18:57:09Z</time>
      </trkpt>
      <trkpt lat="49.01318" lon="1.08809">
        <ele>115.98</ele>
        <time>2011-11-23T18:57:17Z</time>
      </trkpt>
      <trkpt lat="49.01302" lon="1.08815">
        <ele>116.46</ele>
        <time>2011-11-23T18:57:24Z</time>
      </trkpt>
      <trkpt lat="49.01272" lon="1.08825">
        <ele>116.46</ele>
        <time>2011-11-23T18:57:36Z</time>
      </trkpt>
      <trkpt lat="49.01246" lon="1.08832">
        <ele>114.53</ele>
        <time>2011-11-23T18:57:47Z</time>
      </trkpt>
      <trkpt lat="49.01228" lon="1.08834">
        <ele>118.38</ele>
        <time>2011-11-23T18:57:55Z</time>
      </trkpt>
      <trkpt lat="49.01226" lon="1.08834">
        <ele>115.01</ele>
        <time>2011-11-23T18:57:56Z</time>
      </trkpt>
      <trkpt lat="49.01219" lon="1.08832">
        <ele>118.86</ele>
        <time>2011-11-23T18:57:59Z</time>
      </trkpt>
      <trkpt lat="49.01213" lon="1.08829">
        <ele>115.5</ele>
        <time>2011-11-23T18:58:02Z</time>
      </trkpt>
      <trkpt lat="49.01211" lon="1.08828">
        <ele>119.34</ele>
        <time>2011-11-23T18:58:03Z</time>
      </trkpt>
      <trkpt lat="49.01203" lon="1.08823">
        <ele>115.98</ele>
        <time>2011-11-23T18:58:07Z</time>
      </trkpt>
      <trkpt lat="49.01199" lon="1.0882">
        <ele>119.82</ele>
        <time>2011-11-23T18:58:09Z</time>
      </trkpt>
      <trkpt lat="49.01197" lon="1.08819">
        <ele>115.98</ele>
        <time>2011-11-23T18:58:10Z</time>
      </trkpt>
      <trkpt lat="49.01191" lon="1.08816">
        <ele>119.82</ele>
        <time>2011-11-23T18:58:13Z</time>
      </trkpt>
      <trkpt lat="49.01184" lon="1.08813">
        <ele>116.94</ele>
        <time>2011-11-23T18:58:16Z</time>
      </trkpt>
      <trkpt lat="49.01154" lon="1.08791">
        <ele>120.78</ele>
        <time>2011-11-23T18:58:32Z</time>
      </trkpt>
      <trkpt lat="49.01151" lon="1.08787">
        <ele>116.94</ele>
        <time>2011-11-23T18:58:34Z</time>
      </trkpt>
      <trkpt lat="49.0115" lon="1.08786">
        <ele>119.82</ele>
        <time>2011-11-23T18:58:35Z</time>
      </trkpt>
      <trkpt lat="49.01145" lon="1.08779">
        <ele>118.38</ele>
        <time>2011-11-23T18:58:38Z</time>
      </trkpt>
      <trkpt lat="49.01124" lon="1.08744">
        <ele>120.78</ele>
        <time>2011-11-23T18:58:53Z</time>
      </trkpt>
      <trkpt lat="49.01122" lon="1.08743">
        <ele>117.42</ele>
        <time>2011-11-23T18:58:54Z</time>
      </trkpt>
      <trkpt lat="49.01115" lon="1.08739">
        <ele>118.86</ele>
        <time>2011-11-23T18:58:57Z</time>
      </trkpt>
      <trkpt lat="49.01092" lon="1.08719">
        <ele>121.26</ele>
        <time>2011-11-23T18:59:10Z</time>
      </trkpt>
      <trkpt lat="49.01082" lon="1.08695">
        <ele>118.86</ele>
        <time>2011-11-23T18:59:18Z</time>
      </trkpt>
      <trkpt lat="49.0108" lon="1.08693">
        <ele>122.71</ele>
        <time>2011-11-23T18:59:19Z</time>
      </trkpt>
      <trkpt lat="49.01079" lon="1.0869">
        <ele>119.82</ele>
        <time>2011-11-23T18:59:20Z</time>
      </trkpt>
      <trkpt lat="49.01054" lon="1.08666">
        <ele>121.74</ele>
        <time>2011-11-23T18:59:34Z</time>
      </trkpt>
      <trkpt lat="49.01045" lon="1.08664">
        <ele>119.82</ele>
        <time>2011-11-23T18:59:38Z</time>
      </trkpt>
      <trkpt lat="49.01037" lon="1.0866">
        <ele>123.67</ele>
        <time>2011-11-23T18:59:42Z</time>
      </trkpt>
      <trkpt lat="49.01029" lon="1.08655">
        <ele>120.3</ele>
        <time>2011-11-23T18:59:46Z</time>
      </trkpt>
      <trkpt lat="49.01027" lon="1.08653">
        <ele>123.19</ele>
        <time>2011-11-23T18:59:47Z</time>
      </trkpt>
      <trkpt lat="49.01017" lon="1.08645">
        <ele>120.78</ele>
        <time>2011-11-23T18:59:52Z</time>
      </trkpt>
      <trkpt lat="49.01011" lon="1.08641">
        <ele>124.63</ele>
        <time>2011-11-23T18:59:55Z</time>
      </trkpt>
      <trkpt lat="49.00995" lon="1.08629">
        <ele>121.26</ele>
        <time>2011-11-23T19:00:03Z</time>
      </trkpt>
      <trkpt lat="49.00987" lon="1.08622">
        <ele>125.59</ele>
        <time>2011-11-23T19:00:08Z</time>
      </trkpt>
      <trkpt lat="49.00981" lon="1.08618">
        <ele>121.74</ele>
        <time>2011-11-23T19:00:11Z</time>
      </trkpt>
      <trkpt lat="49.00975" lon="1.08615">
        <ele>123.19</ele>
        <time>2011-11-23T19:00:14Z</time>
      </trkpt>
      <trkpt lat="49.00955" lon="1.08609">
        <ele>123.67</ele>
        <time>2011-11-23T19:00:24Z</time>
      </trkpt>
      <trkpt lat="49.0095" lon="1.08607">
        <ele>122.22</ele>
        <time>2011-11-23T19:00:26Z</time>
      </trkpt>
      <trkpt lat="49.00935" lon="1.08605">
        <ele>124.15</ele>
        <time>2011-11-23T19:00:33Z</time>
      </trkpt>
      <trkpt lat="49.00921" lon="1.0861">
        <ele>120.78</ele>
        <time>2011-11-23T19:00:40Z</time>
      </trkpt>
      <trkpt lat="49.00919" lon="1.08612">
        <ele>125.11</ele>
        <time>2011-11-23T19:00:41Z</time>
      </trkpt>
      <trkpt lat="49.00909" lon="1.08621">
        <ele>122.22</ele>
        <time>2011-11-23T19:00:46Z</time>
      </trkpt>
      <trkpt lat="49.00891" lon="1.08633">
        <ele>125.59</ele>
        <time>2011-11-23T19:00:55Z</time>
      </trkpt>
      <trkpt lat="49.00889" lon="1.08635">
        <ele>124.15</ele>
        <time>2011-11-23T19:00:56Z</time>
      </trkpt>
      <trkpt lat="49.00879" lon="1.08643">
        <ele>122.71</ele>
        <time>2011-11-23T19:01:01Z</time>
      </trkpt>
      <trkpt lat="49.00865" lon="1.08655">
        <ele>126.07</ele>
        <time>2011-11-23T19:01:08Z</time>
      </trkpt>
      <trkpt lat="49.0085" lon="1.08671">
        <ele>123.67</ele>
        <time>2011-11-23T19:01:16Z</time>
      </trkpt>
      <trkpt lat="49.00832" lon="1.08691">
        <ele>126.55</ele>
        <time>2011-11-23T19:01:26Z</time>
      </trkpt>
      <trkpt lat="49.0083" lon="1.08693">
        <ele>123.67</ele>
        <time>2011-11-23T19:01:27Z</time>
      </trkpt>
      <trkpt lat="49.00807" lon="1.08724">
        <ele>126.55</ele>
        <time>2011-11-23T19:01:40Z</time>
      </trkpt>
      <trkpt lat="49.00805" lon="1.08726">
        <ele>122.22</ele>
        <time>2011-11-23T19:01:41Z</time>
      </trkpt>
      <trkpt lat="49.00792" lon="1.08736">
        <ele>125.11</ele>
        <time>2011-11-23T19:01:47Z</time>
      </trkpt>
      <trkpt lat="49.00762" lon="1.0876">
        <ele>124.15</ele>
        <time>2011-11-23T19:02:01Z</time>
      </trkpt>
      <trkpt lat="49.00758" lon="1.08763">
        <ele>120.78</ele>
        <time>2011-11-23T19:02:03Z</time>
      </trkpt>
      <trkpt lat="49.00756" lon="1.08765">
        <ele>126.55</ele>
        <time>2011-11-23T19:02:04Z</time>
      </trkpt>
      <trkpt lat="49.00741" lon="1.08776">
        <ele>123.19</ele>
        <time>2011-11-23T19:02:11Z</time>
      </trkpt>
      <trkpt lat="49.0071" lon="1.08794">
        <ele>122.22</ele>
        <time>2011-11-23T19:02:25Z</time>
      </trkpt>
      <trkpt lat="49.00704" lon="1.08798">
        <ele>127.51</ele>
        <time>2011-11-23T19:02:28Z</time>
      </trkpt>
      <trkpt lat="49.00702" lon="1.08799">
        <ele>121.26</ele>
        <time>2011-11-23T19:02:29Z</time>
      </trkpt>
      <trkpt lat="49.007" lon="1.08801">
        <ele>125.11</ele>
        <time>2011-11-23T19:02:30Z</time>
      </trkpt>
      <trkpt lat="49.00694" lon="1.08805">
        <ele>122.22</ele>
        <time>2011-11-23T19:02:33Z</time>
      </trkpt>
      <trkpt lat="49.00682" lon="1.08813">
        <ele>122.71</ele>
        <time>2011-11-23T19:02:39Z</time>
      </trkpt>
      <trkpt lat="49.0068" lon="1.08814">
        <ele>126.07</ele>
        <time>2011-11-23T19:02:40Z</time>
      </trkpt>
      <trkpt lat="49.00677" lon="1.08815">
        <ele>124.15</ele>
        <time>2011-11-23T19:02:41Z</time>
      </trkpt>
      <trkpt lat="49.00653" lon="1.08831">
        <ele>125.11</ele>
        <time>2011-11-23T19:02:53Z</time>
      </trkpt>
      <trkpt lat="49.00644" lon="1.08837">
        <ele>121.74</ele>
        <time>2011-11-23T19:02:58Z</time>
      </trkpt>
      <trkpt lat="49.00619" lon="1.08852">
        <ele>124.63</ele>
        <time>2011-11-23T19:03:10Z</time>
      </trkpt>
      <trkpt lat="49.00609" lon="1.08855">
        <ele>123.19</ele>
        <time>2011-11-23T19:03:14Z</time>
      </trkpt>
      <trkpt lat="49.00599" lon="1.08861">
        <ele>126.55</ele>
        <time>2011-11-23T19:03:18Z</time>
      </trkpt>
      <trkpt lat="49.00597" lon="1.08862">
        <ele>123.67</ele>
        <time>2011-11-23T19:03:19Z</time>
      </trkpt>
      <trkpt lat="49.0057" lon="1.08876">
        <ele>123.19</ele>
        <time>2011-11-23T19:03:31Z</time>
      </trkpt>
      <trkpt lat="49.00565" lon="1.0888">
        <ele>124.15</ele>
        <time>2011-11-23T19:03:33Z</time>
      </trkpt>
      <trkpt lat="49.00532" lon="1.08902">
        <ele>124.15</ele>
        <time>2011-11-23T19:03:47Z</time>
      </trkpt>
      <trkpt lat="49.0053" lon="1.08904">
        <ele>127.03</ele>
        <time>2011-11-23T19:03:48Z</time>
      </trkpt>
      <trkpt lat="49.00523" lon="1.08908">
        <ele>123.67</ele>
        <time>2011-11-23T19:03:51Z</time>
      </trkpt>
      <trkpt lat="49.00502" lon="1.08918">
        <ele>125.11</ele>
        <time>2011-11-23T19:04:00Z</time>
      </trkpt>
      <trkpt lat="49.00471" lon="1.08935">
        <ele>126.07</ele>
        <time>2011-11-23T19:04:14Z</time>
      </trkpt>
      <trkpt lat="49.00469" lon="1.08936">
        <ele>122.71</ele>
        <time>2011-11-23T19:04:15Z</time>
      </trkpt>
      <trkpt lat="49.00466" lon="1.08938">
        <ele>123.19</ele>
        <time>2011-11-23T19:04:16Z</time>
      </trkpt>
      <trkpt lat="49.00456" lon="1.08945">
        <ele>125.59</ele>
        <time>2011-11-23T19:04:21Z</time>
      </trkpt>
      <trkpt lat="49.00451" lon="1.08947">
        <ele>122.22</ele>
        <time>2011-11-23T19:04:23Z</time>
      </trkpt>
      <trkpt lat="49.00449" lon="1.08948">
        <ele>123.67</ele>
        <time>2011-11-23T19:04:24Z</time>
      </trkpt>
      <trkpt lat="49.00428" lon="1.08961">
        <ele>123.67</ele>
        <time>2011-11-23T19:04:33Z</time>
      </trkpt>
      <trkpt lat="49.00411" lon="1.08972">
        <ele>124.15</ele>
        <time>2011-11-23T19:04:41Z</time>
      </trkpt>
      <trkpt lat="49.00382" lon="1.08989">
        <ele>124.63</ele>
        <time>2011-11-23T19:04:54Z</time>
      </trkpt>
      <trkpt lat="49.00373" lon="1.08994">
        <ele>120.78</ele>
        <time>2011-11-23T19:04:58Z</time>
      </trkpt>
      <trkpt lat="49.00354" lon="1.09003">
        <ele>119.34</ele>
        <time>2011-11-23T19:05:06Z</time>
      </trkpt>
      <trkpt lat="49.00347" lon="1.09007">
        <ele>121.74</ele>
        <time>2011-11-23T19:05:09Z</time>
      </trkpt>
      <trkpt lat="49.00342" lon="1.09011">
        <ele>119.82</ele>
        <time>2011-11-23T19:05:11Z</time>
      </trkpt>
      <trkpt lat="49.00333" lon="1.09019">
        <ele>120.78</ele>
        <time>2011-11-23T19:05:15Z</time>
      </trkpt>
      <trkpt lat="49.00311" lon="1.09032">
        <ele>117.9</ele>
        <time>2011-11-23T19:05:24Z</time>
      </trkpt>
      <trkpt lat="49.00278" lon="1.09043">
        <ele>115.01</ele>
        <time>2011-11-23T19:05:37Z</time>
      </trkpt>
      <trkpt lat="49.00261" lon="1.09075">
        <ele>114.53</ele>
        <time>2011-11-23T19:05:48Z</time>
      </trkpt>
      <trkpt lat="49.00242" lon="1.09072">
        <ele>115.5</ele>
        <time>2011-11-23T19:05:58Z</time>
      </trkpt>
      <trkpt lat="49.00241" lon="1.09069">
        <ele>113.57</ele>
        <time>2011-11-23T19:06:17Z</time>
      </trkpt>
      <trkpt lat="49.00241" lon="1.09069">
        <ele>116.94</ele>
        <time>2011-11-23T19:06:23Z</time>
      </trkpt>
      <trkpt lat="49.0024" lon="1.09068">
        <ele>113.57</ele>
        <time>2011-11-23T19:06:24Z</time>
      </trkpt>
      <trkpt lat="49.0024" lon="1.09063">
        <ele>116.94</ele>
        <time>2011-11-23T19:06:33Z</time>
      </trkpt>
      <trkpt lat="49.0024" lon="1.09064">
        <ele>113.57</ele>
        <time>2011-11-23T19:06:35Z</time>
      </trkpt>
      <trkpt lat="49.0024" lon="1.09064">
        <ele>115.98</ele>
        <time>2011-11-23T19:06:38Z</time>
      </trkpt>
      <trkpt lat="49.0024" lon="1.09064">
        <ele>113.09</ele>
        <time>2011-11-23T19:06:47Z</time>
      </trkpt>
      <trkpt lat="49.0024" lon="1.09063">
        <ele>115.01</ele>
        <time>2011-11-23T19:06:49Z</time>
      </trkpt>
      <trkpt lat="49.00241" lon="1.09063">
        <ele>115.01</ele>
        <time>2011-11-23T19:07:09Z</time>
      </trkpt>
      <trkpt lat="49.00241" lon="1.09063">
        <ele>116.46</ele>
        <time>2011-11-23T19:07:10Z</time>
      </trkpt>
      <trkpt lat="49.00237" lon="1.09061">
        <ele>115.01</ele>
        <time>2011-11-23T19:07:15Z</time>
      </trkpt>
      <trkpt lat="49.00236" lon="1.09059">
        <ele>114.05</ele>
        <time>2011-11-23T19:07:16Z</time>
      </trkpt>
      <trkpt lat="49.00232" lon="1.09054">
        <ele>113.09</ele>
        <time>2011-11-23T19:07:20Z</time>
      </trkpt>
      <trkpt lat="49.00225" lon="1.09042">
        <ele>113.57</ele>
        <time>2011-11-23T19:07:28Z</time>
      </trkpt>
      <trkpt lat="49.00223" lon="1.09039">
        <ele>115.5</ele>
        <time>2011-11-23T19:07:30Z</time>
      </trkpt>
    </trkseg>
  </trk>
</gpx>